<?xml version="1.0" encoding="UTF-8" standalone="no" ?>
<gpx xmlns="http://www.topografix.com/GPX/1/1" xmlns:xsi="http://www.w3.org/2001/XMLSchema-instance" xsi:schemaLocation="http://www.topografix.com/GPX/1/1 http://www.topografix.com/GPX/1/1/gpx.xsd" version="1.1" creator="VisuGPX - https://www.visugpx.com">
  <metadata>
    <name>La montagne de Jouère depuis Valavoire : château de la mole et croix de Saint-Jean</name>
  </metadata>
  <trk>
    <name><![CDATA[04/08/2020 09:40:18  La montagne de Jouère depuis Valavoire : château de la mole et croix de Saint-Jean]]></name>
    <extensions>
      <line xmlns="http://www.topografix.com/GPX/gpx_style/0/2">
        <color>0000FF</color>
        <width>4</width>
      </line>
    </extensions>
    <trkseg>
      <trkpt lat="44.27682" lon="6.07556">
        <ele>1256.1999511719</ele>
        <time>2020-08-04T07:40:18Z</time>
      </trkpt>
      <trkpt lat="44.27682" lon="6.07556">
        <ele>1256.1999511719</ele>
        <time>2020-08-04T07:40:19Z</time>
      </trkpt>
      <trkpt lat="44.27681" lon="6.07557">
        <ele>1256.4000244141</ele>
        <time>2020-08-04T07:40:34Z</time>
      </trkpt>
      <trkpt lat="44.27681" lon="6.07557">
        <ele>1256.4000244141</ele>
        <time>2020-08-04T07:40:35Z</time>
      </trkpt>
      <trkpt lat="44.27685" lon="6.07556">
        <ele>1256.5999755859</ele>
        <time>2020-08-04T07:41:00Z</time>
      </trkpt>
      <trkpt lat="44.2769" lon="6.07558">
        <ele>1256.1999511719</ele>
        <time>2020-08-04T07:41:55Z</time>
      </trkpt>
      <trkpt lat="44.27703" lon="6.07544">
        <ele>1256.4000244141</ele>
        <time>2020-08-04T07:42:19Z</time>
      </trkpt>
      <trkpt lat="44.27708" lon="6.07539">
        <ele>1257</ele>
        <time>2020-08-04T07:42:25Z</time>
      </trkpt>
      <trkpt lat="44.27714" lon="6.07534">
        <ele>1257.5999755859</ele>
        <time>2020-08-04T07:42:32Z</time>
      </trkpt>
      <trkpt lat="44.27731" lon="6.07528">
        <ele>1258.8000488281</ele>
        <time>2020-08-04T07:42:50Z</time>
      </trkpt>
      <trkpt lat="44.27756" lon="6.07514">
        <ele>1261.4000244141</ele>
        <time>2020-08-04T07:43:14Z</time>
      </trkpt>
      <trkpt lat="44.27773" lon="6.07519">
        <ele>1263</ele>
        <time>2020-08-04T07:43:33Z</time>
      </trkpt>
      <trkpt lat="44.27779" lon="6.07552">
        <ele>1266</ele>
        <time>2020-08-04T07:43:59Z</time>
      </trkpt>
      <trkpt lat="44.27782" lon="6.07582">
        <ele>1268.8000488281</ele>
        <time>2020-08-04T07:44:24Z</time>
      </trkpt>
      <trkpt lat="44.27784" lon="6.07606">
        <ele>1271.1999511719</ele>
        <time>2020-08-04T07:44:44Z</time>
      </trkpt>
      <trkpt lat="44.27782" lon="6.0764">
        <ele>1273.8000488281</ele>
        <time>2020-08-04T07:45:11Z</time>
      </trkpt>
      <trkpt lat="44.27777" lon="6.07671">
        <ele>1277</ele>
        <time>2020-08-04T07:45:33Z</time>
      </trkpt>
      <trkpt lat="44.27772" lon="6.07696">
        <ele>1280</ele>
        <time>2020-08-04T07:45:52Z</time>
      </trkpt>
      <trkpt lat="44.2777" lon="6.07723">
        <ele>1282.4000244141</ele>
        <time>2020-08-04T07:46:13Z</time>
      </trkpt>
      <trkpt lat="44.27767" lon="6.07761">
        <ele>1284.8000488281</ele>
        <time>2020-08-04T07:46:36Z</time>
      </trkpt>
      <trkpt lat="44.27771" lon="6.07786">
        <ele>1286.8000488281</ele>
        <time>2020-08-04T07:46:54Z</time>
      </trkpt>
      <trkpt lat="44.2778" lon="6.07795">
        <ele>1288.8000488281</ele>
        <time>2020-08-04T07:47:13Z</time>
      </trkpt>
      <trkpt lat="44.27794" lon="6.07813">
        <ele>1291.8000488281</ele>
        <time>2020-08-04T07:47:36Z</time>
      </trkpt>
      <trkpt lat="44.27814" lon="6.07832">
        <ele>1294.5999755859</ele>
        <time>2020-08-04T07:47:59Z</time>
      </trkpt>
      <trkpt lat="44.27824" lon="6.07852">
        <ele>1297.4000244141</ele>
        <time>2020-08-04T07:48:19Z</time>
      </trkpt>
      <trkpt lat="44.27835" lon="6.07876">
        <ele>1299.8000488281</ele>
        <time>2020-08-04T07:48:37Z</time>
      </trkpt>
      <trkpt lat="44.27846" lon="6.07887">
        <ele>1301</ele>
        <time>2020-08-04T07:48:50Z</time>
      </trkpt>
      <trkpt lat="44.27851" lon="6.07884">
        <ele>1302</ele>
        <time>2020-08-04T07:48:55Z</time>
      </trkpt>
      <trkpt lat="44.27857" lon="6.07877">
        <ele>1303.1999511719</ele>
        <time>2020-08-04T07:49:02Z</time>
      </trkpt>
      <trkpt lat="44.27865" lon="6.07861">
        <ele>1304.5999755859</ele>
        <time>2020-08-04T07:49:17Z</time>
      </trkpt>
      <trkpt lat="44.2789" lon="6.07875">
        <ele>1306.1999511719</ele>
        <time>2020-08-04T07:49:42Z</time>
      </trkpt>
      <trkpt lat="44.27902" lon="6.07885">
        <ele>1308</ele>
        <time>2020-08-04T07:49:58Z</time>
      </trkpt>
      <trkpt lat="44.27916" lon="6.07908">
        <ele>1311</ele>
        <time>2020-08-04T07:50:21Z</time>
      </trkpt>
      <trkpt lat="44.27902" lon="6.07909">
        <ele>1312.5999755859</ele>
        <time>2020-08-04T07:50:36Z</time>
      </trkpt>
      <trkpt lat="44.27877" lon="6.07901">
        <ele>1313.8000488281</ele>
        <time>2020-08-04T07:50:56Z</time>
      </trkpt>
      <trkpt lat="44.27862" lon="6.07913">
        <ele>1315.5999755859</ele>
        <time>2020-08-04T07:51:13Z</time>
      </trkpt>
      <trkpt lat="44.27852" lon="6.07922">
        <ele>1316.5999755859</ele>
        <time>2020-08-04T07:51:24Z</time>
      </trkpt>
      <trkpt lat="44.27844" lon="6.07923">
        <ele>1316.8000488281</ele>
        <time>2020-08-04T07:51:32Z</time>
      </trkpt>
      <trkpt lat="44.27823" lon="6.07919">
        <ele>1318</ele>
        <time>2020-08-04T07:51:50Z</time>
      </trkpt>
      <trkpt lat="44.27812" lon="6.07919">
        <ele>1319</ele>
        <time>2020-08-04T07:52:02Z</time>
      </trkpt>
      <trkpt lat="44.27789" lon="6.0793">
        <ele>1321.5999755859</ele>
        <time>2020-08-04T07:52:24Z</time>
      </trkpt>
      <trkpt lat="44.27779" lon="6.07936">
        <ele>1323</ele>
        <time>2020-08-04T07:52:33Z</time>
      </trkpt>
      <trkpt lat="44.27768" lon="6.07945">
        <ele>1324.4000244141</ele>
        <time>2020-08-04T07:52:45Z</time>
      </trkpt>
      <trkpt lat="44.27759" lon="6.07953">
        <ele>1326.5999755859</ele>
        <time>2020-08-04T07:53:01Z</time>
      </trkpt>
      <trkpt lat="44.27757" lon="6.07956">
        <ele>1327.4000244141</ele>
        <time>2020-08-04T07:53:23Z</time>
      </trkpt>
      <trkpt lat="44.27743" lon="6.07969">
        <ele>1328.8000488281</ele>
        <time>2020-08-04T07:53:45Z</time>
      </trkpt>
      <trkpt lat="44.27735" lon="6.07985">
        <ele>1330.1999511719</ele>
        <time>2020-08-04T07:54:01Z</time>
      </trkpt>
      <trkpt lat="44.27719" lon="6.0802">
        <ele>1333.4000244141</ele>
        <time>2020-08-04T07:54:28Z</time>
      </trkpt>
      <trkpt lat="44.27704" lon="6.08044">
        <ele>1336.5999755859</ele>
        <time>2020-08-04T07:54:53Z</time>
      </trkpt>
      <trkpt lat="44.27686" lon="6.08074">
        <ele>1339.5999755859</ele>
        <time>2020-08-04T07:55:22Z</time>
      </trkpt>
      <trkpt lat="44.27674" lon="6.08097">
        <ele>1342</ele>
        <time>2020-08-04T07:55:45Z</time>
      </trkpt>
      <trkpt lat="44.27659" lon="6.08123">
        <ele>1344.4000244141</ele>
        <time>2020-08-04T07:56:09Z</time>
      </trkpt>
      <trkpt lat="44.27643" lon="6.08143">
        <ele>1346.8000488281</ele>
        <time>2020-08-04T07:56:27Z</time>
      </trkpt>
      <trkpt lat="44.27629" lon="6.08153">
        <ele>1348</ele>
        <time>2020-08-04T07:56:43Z</time>
      </trkpt>
      <trkpt lat="44.27622" lon="6.08159">
        <ele>1348.4000244141</ele>
        <time>2020-08-04T07:56:50Z</time>
      </trkpt>
      <trkpt lat="44.27614" lon="6.08173">
        <ele>1349.8000488281</ele>
        <time>2020-08-04T07:57:03Z</time>
      </trkpt>
      <trkpt lat="44.2761" lon="6.08199">
        <ele>1351</ele>
        <time>2020-08-04T07:57:23Z</time>
      </trkpt>
      <trkpt lat="44.27616" lon="6.08212">
        <ele>1351.5999755859</ele>
        <time>2020-08-04T07:57:38Z</time>
      </trkpt>
      <trkpt lat="44.2763" lon="6.08213">
        <ele>1353.1999511719</ele>
        <time>2020-08-04T07:57:51Z</time>
      </trkpt>
      <trkpt lat="44.27663" lon="6.08189">
        <ele>1356</ele>
        <time>2020-08-04T07:58:21Z</time>
      </trkpt>
      <trkpt lat="44.27672" lon="6.0817">
        <ele>1357.8000488281</ele>
        <time>2020-08-04T07:58:39Z</time>
      </trkpt>
      <trkpt lat="44.2768" lon="6.08171">
        <ele>1359.4000244141</ele>
        <time>2020-08-04T07:58:52Z</time>
      </trkpt>
      <trkpt lat="44.27674" lon="6.08192">
        <ele>1361.8000488281</ele>
        <time>2020-08-04T07:59:07Z</time>
      </trkpt>
      <trkpt lat="44.2767" lon="6.08218">
        <ele>1363.8000488281</ele>
        <time>2020-08-04T07:59:28Z</time>
      </trkpt>
      <trkpt lat="44.2766" lon="6.08245">
        <ele>1366.8000488281</ele>
        <time>2020-08-04T07:59:52Z</time>
      </trkpt>
      <trkpt lat="44.27651" lon="6.08277">
        <ele>1369.5999755859</ele>
        <time>2020-08-04T08:00:19Z</time>
      </trkpt>
      <trkpt lat="44.27638" lon="6.08307">
        <ele>1372.1999511719</ele>
        <time>2020-08-04T08:00:45Z</time>
      </trkpt>
      <trkpt lat="44.27637" lon="6.08309">
        <ele>1372.4000244141</ele>
        <time>2020-08-04T08:00:47Z</time>
      </trkpt>
      <trkpt lat="44.2763" lon="6.08334">
        <ele>1373.8000488281</ele>
        <time>2020-08-04T08:01:04Z</time>
      </trkpt>
      <trkpt lat="44.27644" lon="6.08335">
        <ele>1375.8000488281</ele>
        <time>2020-08-04T08:01:21Z</time>
      </trkpt>
      <trkpt lat="44.27656" lon="6.08312">
        <ele>1378</ele>
        <time>2020-08-04T08:01:41Z</time>
      </trkpt>
      <trkpt lat="44.27674" lon="6.08289">
        <ele>1380.8000488281</ele>
        <time>2020-08-04T08:02:06Z</time>
      </trkpt>
      <trkpt lat="44.27683" lon="6.08275">
        <ele>1382.4000244141</ele>
        <time>2020-08-04T08:02:28Z</time>
      </trkpt>
      <trkpt lat="44.2769" lon="6.08283">
        <ele>1384.5999755859</ele>
        <time>2020-08-04T08:02:48Z</time>
      </trkpt>
      <trkpt lat="44.27682" lon="6.08313">
        <ele>1387.1999511719</ele>
        <time>2020-08-04T08:03:15Z</time>
      </trkpt>
      <trkpt lat="44.27689" lon="6.08337">
        <ele>1390.1999511719</ele>
        <time>2020-08-04T08:03:36Z</time>
      </trkpt>
      <trkpt lat="44.27696" lon="6.08368">
        <ele>1393.4000244141</ele>
        <time>2020-08-04T08:04:01Z</time>
      </trkpt>
      <trkpt lat="44.27701" lon="6.08404">
        <ele>1396.4000244141</ele>
        <time>2020-08-04T08:04:27Z</time>
      </trkpt>
      <trkpt lat="44.27702" lon="6.08437">
        <ele>1398.8000488281</ele>
        <time>2020-08-04T08:04:53Z</time>
      </trkpt>
      <trkpt lat="44.27712" lon="6.08429">
        <ele>1400</ele>
        <time>2020-08-04T08:05:02Z</time>
      </trkpt>
      <trkpt lat="44.27711" lon="6.08411">
        <ele>1400.8000488281</ele>
        <time>2020-08-04T08:05:13Z</time>
      </trkpt>
      <trkpt lat="44.2771" lon="6.08384">
        <ele>1402.4000244141</ele>
        <time>2020-08-04T08:05:33Z</time>
      </trkpt>
      <trkpt lat="44.27708" lon="6.08364">
        <ele>1404.1999511719</ele>
        <time>2020-08-04T08:05:48Z</time>
      </trkpt>
      <trkpt lat="44.27714" lon="6.08337">
        <ele>1405.5999755859</ele>
        <time>2020-08-04T08:06:08Z</time>
      </trkpt>
      <trkpt lat="44.27716" lon="6.0831">
        <ele>1407.1999511719</ele>
        <time>2020-08-04T08:06:29Z</time>
      </trkpt>
      <trkpt lat="44.27716" lon="6.08305">
        <ele>1408.4000244141</ele>
        <time>2020-08-04T08:06:45Z</time>
      </trkpt>
      <trkpt lat="44.2772" lon="6.08293">
        <ele>1408.5999755859</ele>
        <time>2020-08-04T08:07:32Z</time>
      </trkpt>
      <trkpt lat="44.27736" lon="6.08283">
        <ele>1409.4000244141</ele>
        <time>2020-08-04T08:07:50Z</time>
      </trkpt>
      <trkpt lat="44.2776" lon="6.08292">
        <ele>1411</ele>
        <time>2020-08-04T08:08:18Z</time>
      </trkpt>
      <trkpt lat="44.27777" lon="6.08314">
        <ele>1414.1999511719</ele>
        <time>2020-08-04T08:08:44Z</time>
      </trkpt>
      <trkpt lat="44.27791" lon="6.08327">
        <ele>1416.1999511719</ele>
        <time>2020-08-04T08:09:08Z</time>
      </trkpt>
      <trkpt lat="44.27811" lon="6.08353">
        <ele>1418.8000488281</ele>
        <time>2020-08-04T08:09:35Z</time>
      </trkpt>
      <trkpt lat="44.27817" lon="6.08356">
        <ele>1420.1999511719</ele>
        <time>2020-08-04T08:09:45Z</time>
      </trkpt>
      <trkpt lat="44.2784" lon="6.08375">
        <ele>1423</ele>
        <time>2020-08-04T08:10:13Z</time>
      </trkpt>
      <trkpt lat="44.27863" lon="6.08394">
        <ele>1425</ele>
        <time>2020-08-04T08:10:36Z</time>
      </trkpt>
      <trkpt lat="44.27868" lon="6.08394">
        <ele>1425.4000244141</ele>
        <time>2020-08-04T08:10:40Z</time>
      </trkpt>
      <trkpt lat="44.27878" lon="6.08395">
        <ele>1425.8000488281</ele>
        <time>2020-08-04T08:10:56Z</time>
      </trkpt>
      <trkpt lat="44.27884" lon="6.08402">
        <ele>1426</ele>
        <time>2020-08-04T08:11:28Z</time>
      </trkpt>
      <trkpt lat="44.27883" lon="6.08417">
        <ele>1427.8000488281</ele>
        <time>2020-08-04T08:11:42Z</time>
      </trkpt>
      <trkpt lat="44.27885" lon="6.08437">
        <ele>1430</ele>
        <time>2020-08-04T08:12:09Z</time>
      </trkpt>
      <trkpt lat="44.27882" lon="6.08461">
        <ele>1433</ele>
        <time>2020-08-04T08:12:30Z</time>
      </trkpt>
      <trkpt lat="44.27888" lon="6.08485">
        <ele>1435.5999755859</ele>
        <time>2020-08-04T08:12:49Z</time>
      </trkpt>
      <trkpt lat="44.2789" lon="6.08506">
        <ele>1438.8000488281</ele>
        <time>2020-08-04T08:13:10Z</time>
      </trkpt>
      <trkpt lat="44.2789" lon="6.08516">
        <ele>1441.8000488281</ele>
        <time>2020-08-04T08:13:23Z</time>
      </trkpt>
      <trkpt lat="44.27887" lon="6.08536">
        <ele>1444.8000488281</ele>
        <time>2020-08-04T08:13:45Z</time>
      </trkpt>
      <trkpt lat="44.27886" lon="6.08554">
        <ele>1447.8000488281</ele>
        <time>2020-08-04T08:14:07Z</time>
      </trkpt>
      <trkpt lat="44.2788" lon="6.08567">
        <ele>1451</ele>
        <time>2020-08-04T08:14:26Z</time>
      </trkpt>
      <trkpt lat="44.27881" lon="6.08573">
        <ele>1454</ele>
        <time>2020-08-04T08:14:46Z</time>
      </trkpt>
      <trkpt lat="44.27886" lon="6.08576">
        <ele>1454.1999511719</ele>
        <time>2020-08-04T08:15:07Z</time>
      </trkpt>
      <trkpt lat="44.27888" lon="6.08582">
        <ele>1455.1999511719</ele>
        <time>2020-08-04T08:15:16Z</time>
      </trkpt>
      <trkpt lat="44.27891" lon="6.08598">
        <ele>1457.5999755859</ele>
        <time>2020-08-04T08:15:33Z</time>
      </trkpt>
      <trkpt lat="44.27885" lon="6.08616">
        <ele>1459.1999511719</ele>
        <time>2020-08-04T08:15:48Z</time>
      </trkpt>
      <trkpt lat="44.27891" lon="6.08631">
        <ele>1462.4000244141</ele>
        <time>2020-08-04T08:16:03Z</time>
      </trkpt>
      <trkpt lat="44.279" lon="6.08647">
        <ele>1465.4000244141</ele>
        <time>2020-08-04T08:16:23Z</time>
      </trkpt>
      <trkpt lat="44.27907" lon="6.08658">
        <ele>1468</ele>
        <time>2020-08-04T08:16:39Z</time>
      </trkpt>
      <trkpt lat="44.27913" lon="6.08679">
        <ele>1471.1999511719</ele>
        <time>2020-08-04T08:17:01Z</time>
      </trkpt>
      <trkpt lat="44.2791" lon="6.08695">
        <ele>1474.5999755859</ele>
        <time>2020-08-04T08:17:19Z</time>
      </trkpt>
      <trkpt lat="44.27913" lon="6.08714">
        <ele>1477.5999755859</ele>
        <time>2020-08-04T08:17:37Z</time>
      </trkpt>
      <trkpt lat="44.27918" lon="6.08729">
        <ele>1480.8000488281</ele>
        <time>2020-08-04T08:17:56Z</time>
      </trkpt>
      <trkpt lat="44.27915" lon="6.08736">
        <ele>1483.8000488281</ele>
        <time>2020-08-04T08:18:12Z</time>
      </trkpt>
      <trkpt lat="44.27916" lon="6.0874">
        <ele>1484.8000488281</ele>
        <time>2020-08-04T08:18:50Z</time>
      </trkpt>
      <trkpt lat="44.27918" lon="6.08742">
        <ele>1485.1999511719</ele>
        <time>2020-08-04T08:19:24Z</time>
      </trkpt>
      <trkpt lat="44.27915" lon="6.08749">
        <ele>1488</ele>
        <time>2020-08-04T08:19:46Z</time>
      </trkpt>
      <trkpt lat="44.27915" lon="6.08753">
        <ele>1488.4000244141</ele>
        <time>2020-08-04T08:20:30Z</time>
      </trkpt>
      <trkpt lat="44.27912" lon="6.08758">
        <ele>1488.5999755859</ele>
        <time>2020-08-04T08:20:57Z</time>
      </trkpt>
      <trkpt lat="44.27915" lon="6.08774">
        <ele>1491.5999755859</ele>
        <time>2020-08-04T08:21:17Z</time>
      </trkpt>
      <trkpt lat="44.27916" lon="6.08787">
        <ele>1494</ele>
        <time>2020-08-04T08:21:38Z</time>
      </trkpt>
      <trkpt lat="44.27916" lon="6.08799">
        <ele>1497</ele>
        <time>2020-08-04T08:21:57Z</time>
      </trkpt>
      <trkpt lat="44.27919" lon="6.08807">
        <ele>1500</ele>
        <time>2020-08-04T08:22:19Z</time>
      </trkpt>
      <trkpt lat="44.27924" lon="6.08821">
        <ele>1503</ele>
        <time>2020-08-04T08:22:38Z</time>
      </trkpt>
      <trkpt lat="44.27926" lon="6.08831">
        <ele>1506.1999511719</ele>
        <time>2020-08-04T08:22:55Z</time>
      </trkpt>
      <trkpt lat="44.27929" lon="6.08843">
        <ele>1508.5999755859</ele>
        <time>2020-08-04T08:23:28Z</time>
      </trkpt>
      <trkpt lat="44.27932" lon="6.08851">
        <ele>1511.8000488281</ele>
        <time>2020-08-04T08:23:50Z</time>
      </trkpt>
      <trkpt lat="44.27942" lon="6.08865">
        <ele>1514.8000488281</ele>
        <time>2020-08-04T08:24:12Z</time>
      </trkpt>
      <trkpt lat="44.27949" lon="6.08873">
        <ele>1518</ele>
        <time>2020-08-04T08:24:27Z</time>
      </trkpt>
      <trkpt lat="44.2796" lon="6.08882">
        <ele>1521</ele>
        <time>2020-08-04T08:24:44Z</time>
      </trkpt>
      <trkpt lat="44.27965" lon="6.08893">
        <ele>1524</ele>
        <time>2020-08-04T08:25:04Z</time>
      </trkpt>
      <trkpt lat="44.27964" lon="6.08905">
        <ele>1527.1999511719</ele>
        <time>2020-08-04T08:25:22Z</time>
      </trkpt>
      <trkpt lat="44.27964" lon="6.08908">
        <ele>1530.1999511719</ele>
        <time>2020-08-04T08:25:37Z</time>
      </trkpt>
      <trkpt lat="44.27968" lon="6.08914">
        <ele>1530.5999755859</ele>
        <time>2020-08-04T08:26:22Z</time>
      </trkpt>
      <trkpt lat="44.27968" lon="6.08927">
        <ele>1533.8000488281</ele>
        <time>2020-08-04T08:26:44Z</time>
      </trkpt>
      <trkpt lat="44.27971" lon="6.08937">
        <ele>1537</ele>
        <time>2020-08-04T08:27:00Z</time>
      </trkpt>
      <trkpt lat="44.27974" lon="6.08946">
        <ele>1540</ele>
        <time>2020-08-04T08:27:18Z</time>
      </trkpt>
      <trkpt lat="44.27978" lon="6.08955">
        <ele>1543.1999511719</ele>
        <time>2020-08-04T08:27:35Z</time>
      </trkpt>
      <trkpt lat="44.27978" lon="6.08963">
        <ele>1546.1999511719</ele>
        <time>2020-08-04T08:27:52Z</time>
      </trkpt>
      <trkpt lat="44.27979" lon="6.08978">
        <ele>1549.1999511719</ele>
        <time>2020-08-04T08:28:09Z</time>
      </trkpt>
      <trkpt lat="44.27987" lon="6.08994">
        <ele>1552.4000244141</ele>
        <time>2020-08-04T08:28:34Z</time>
      </trkpt>
      <trkpt lat="44.27994" lon="6.09003">
        <ele>1555.4000244141</ele>
        <time>2020-08-04T08:28:52Z</time>
      </trkpt>
      <trkpt lat="44.27993" lon="6.09009">
        <ele>1558.4000244141</ele>
        <time>2020-08-04T08:29:10Z</time>
      </trkpt>
      <trkpt lat="44.27995" lon="6.0901">
        <ele>1559</ele>
        <time>2020-08-04T08:30:01Z</time>
      </trkpt>
      <trkpt lat="44.28004" lon="6.09013">
        <ele>1562</ele>
        <time>2020-08-04T08:30:20Z</time>
      </trkpt>
      <trkpt lat="44.28013" lon="6.09015">
        <ele>1565</ele>
        <time>2020-08-04T08:30:34Z</time>
      </trkpt>
      <trkpt lat="44.28016" lon="6.09023">
        <ele>1568</ele>
        <time>2020-08-04T08:30:47Z</time>
      </trkpt>
      <trkpt lat="44.28017" lon="6.0904">
        <ele>1570.5999755859</ele>
        <time>2020-08-04T08:31:25Z</time>
      </trkpt>
      <trkpt lat="44.2802" lon="6.09053">
        <ele>1573.8000488281</ele>
        <time>2020-08-04T08:31:42Z</time>
      </trkpt>
      <trkpt lat="44.28014" lon="6.09066">
        <ele>1576.8000488281</ele>
        <time>2020-08-04T08:31:59Z</time>
      </trkpt>
      <trkpt lat="44.28006" lon="6.09068">
        <ele>1580</ele>
        <time>2020-08-04T08:32:15Z</time>
      </trkpt>
      <trkpt lat="44.28" lon="6.09072">
        <ele>1583</ele>
        <time>2020-08-04T08:32:29Z</time>
      </trkpt>
      <trkpt lat="44.28" lon="6.09081">
        <ele>1585.4000244141</ele>
        <time>2020-08-04T08:33:09Z</time>
      </trkpt>
      <trkpt lat="44.27994" lon="6.09092">
        <ele>1588.5999755859</ele>
        <time>2020-08-04T08:33:27Z</time>
      </trkpt>
      <trkpt lat="44.27987" lon="6.09111">
        <ele>1590</ele>
        <time>2020-08-04T08:33:55Z</time>
      </trkpt>
      <trkpt lat="44.27983" lon="6.09117">
        <ele>1593</ele>
        <time>2020-08-04T08:34:17Z</time>
      </trkpt>
      <trkpt lat="44.27983" lon="6.09114">
        <ele>1594.1999511719</ele>
        <time>2020-08-04T08:35:21Z</time>
      </trkpt>
      <trkpt lat="44.27986" lon="6.09125">
        <ele>1594.5999755859</ele>
        <time>2020-08-04T08:36:01Z</time>
      </trkpt>
      <trkpt lat="44.27994" lon="6.09134">
        <ele>1597.5999755859</ele>
        <time>2020-08-04T08:36:20Z</time>
      </trkpt>
      <trkpt lat="44.28003" lon="6.09138">
        <ele>1600.5999755859</ele>
        <time>2020-08-04T08:36:38Z</time>
      </trkpt>
      <trkpt lat="44.28018" lon="6.0914">
        <ele>1602.5999755859</ele>
        <time>2020-08-04T08:37:03Z</time>
      </trkpt>
      <trkpt lat="44.28034" lon="6.09146">
        <ele>1605.8000488281</ele>
        <time>2020-08-04T08:37:24Z</time>
      </trkpt>
      <trkpt lat="44.28041" lon="6.09143">
        <ele>1608.8000488281</ele>
        <time>2020-08-04T08:37:41Z</time>
      </trkpt>
      <trkpt lat="44.28051" lon="6.09143">
        <ele>1611.8000488281</ele>
        <time>2020-08-04T08:38:02Z</time>
      </trkpt>
      <trkpt lat="44.2806" lon="6.09146">
        <ele>1612.8000488281</ele>
        <time>2020-08-04T08:38:19Z</time>
      </trkpt>
      <trkpt lat="44.28058" lon="6.09153">
        <ele>1613.5999755859</ele>
        <time>2020-08-04T08:38:29Z</time>
      </trkpt>
      <trkpt lat="44.28057" lon="6.09157">
        <ele>1613.5999755859</ele>
        <time>2020-08-04T08:38:33Z</time>
      </trkpt>
      <trkpt lat="44.2806" lon="6.09165">
        <ele>1613</ele>
        <time>2020-08-04T08:38:56Z</time>
      </trkpt>
      <trkpt lat="44.28068" lon="6.09166">
        <ele>1613</ele>
        <time>2020-08-04T08:39:10Z</time>
      </trkpt>
      <trkpt lat="44.28062" lon="6.09151">
        <ele>1613.5999755859</ele>
        <time>2020-08-04T08:39:32Z</time>
      </trkpt>
      <trkpt lat="44.2806" lon="6.09154">
        <ele>1614.5999755859</ele>
        <time>2020-08-04T08:40:09Z</time>
      </trkpt>
      <trkpt lat="44.2806" lon="6.09153">
        <ele>1614.5999755859</ele>
        <time>2020-08-04T08:40:16Z</time>
      </trkpt>
      <trkpt lat="44.28063" lon="6.09168">
        <ele>1614.8000488281</ele>
        <time>2020-08-04T08:40:52Z</time>
      </trkpt>
      <trkpt lat="44.28062" lon="6.09171">
        <ele>1614.8000488281</ele>
        <time>2020-08-04T08:40:56Z</time>
      </trkpt>
      <trkpt lat="44.28055" lon="6.09171">
        <ele>1614.8000488281</ele>
        <time>2020-08-04T08:41:26Z</time>
      </trkpt>
      <trkpt lat="44.28053" lon="6.09168">
        <ele>1614.8000488281</ele>
        <time>2020-08-04T08:42:00Z</time>
      </trkpt>
      <trkpt lat="44.28054" lon="6.09155">
        <ele>1614.5999755859</ele>
        <time>2020-08-04T08:42:29Z</time>
      </trkpt>
      <trkpt lat="44.28052" lon="6.09169">
        <ele>1614.8000488281</ele>
        <time>2020-08-04T08:43:15Z</time>
      </trkpt>
      <trkpt lat="44.28054" lon="6.09168">
        <ele>1615.1999511719</ele>
        <time>2020-08-04T08:43:47Z</time>
      </trkpt>
      <trkpt lat="44.28048" lon="6.0917">
        <ele>1615.1999511719</ele>
        <time>2020-08-04T08:44:17Z</time>
      </trkpt>
      <trkpt lat="44.28045" lon="6.09165">
        <ele>1615</ele>
        <time>2020-08-04T08:44:48Z</time>
      </trkpt>
      <trkpt lat="44.28044" lon="6.09166">
        <ele>1615</ele>
        <time>2020-08-04T08:45:15Z</time>
      </trkpt>
      <trkpt lat="44.28045" lon="6.09166">
        <ele>1614.5999755859</ele>
        <time>2020-08-04T08:45:22Z</time>
      </trkpt>
      <trkpt lat="44.28054" lon="6.09166">
        <ele>1613.4000244141</ele>
        <time>2020-08-04T08:45:35Z</time>
      </trkpt>
      <trkpt lat="44.28077" lon="6.09164">
        <ele>1613.5999755859</ele>
        <time>2020-08-04T08:46:00Z</time>
      </trkpt>
      <trkpt lat="44.28087" lon="6.0917">
        <ele>1613</ele>
        <time>2020-08-04T08:46:22Z</time>
      </trkpt>
      <trkpt lat="44.28101" lon="6.09183">
        <ele>1614.8000488281</ele>
        <time>2020-08-04T08:46:45Z</time>
      </trkpt>
      <trkpt lat="44.28119" lon="6.09197">
        <ele>1617.5999755859</ele>
        <time>2020-08-04T08:47:12Z</time>
      </trkpt>
      <trkpt lat="44.28129" lon="6.09206">
        <ele>1620.5999755859</ele>
        <time>2020-08-04T08:47:30Z</time>
      </trkpt>
      <trkpt lat="44.28136" lon="6.09213">
        <ele>1623.5999755859</ele>
        <time>2020-08-04T08:47:53Z</time>
      </trkpt>
      <trkpt lat="44.28131" lon="6.09201">
        <ele>1624</ele>
        <time>2020-08-04T08:48:24Z</time>
      </trkpt>
      <trkpt lat="44.2814" lon="6.09213">
        <ele>1623.5999755859</ele>
        <time>2020-08-04T08:49:02Z</time>
      </trkpt>
      <trkpt lat="44.28153" lon="6.09228">
        <ele>1625.1999511719</ele>
        <time>2020-08-04T08:49:26Z</time>
      </trkpt>
      <trkpt lat="44.28161" lon="6.09233">
        <ele>1627.5999755859</ele>
        <time>2020-08-04T08:49:45Z</time>
      </trkpt>
      <trkpt lat="44.28168" lon="6.09235">
        <ele>1630.5999755859</ele>
        <time>2020-08-04T08:50:02Z</time>
      </trkpt>
      <trkpt lat="44.28174" lon="6.09235">
        <ele>1633.5999755859</ele>
        <time>2020-08-04T08:50:21Z</time>
      </trkpt>
      <trkpt lat="44.28174" lon="6.09232">
        <ele>1634.1999511719</ele>
        <time>2020-08-04T08:50:43Z</time>
      </trkpt>
      <trkpt lat="44.28171" lon="6.09225">
        <ele>1634.4000244141</ele>
        <time>2020-08-04T08:51:16Z</time>
      </trkpt>
      <trkpt lat="44.28179" lon="6.09235">
        <ele>1635.4000244141</ele>
        <time>2020-08-04T08:51:43Z</time>
      </trkpt>
      <trkpt lat="44.28179" lon="6.09247">
        <ele>1638.5999755859</ele>
        <time>2020-08-04T08:51:59Z</time>
      </trkpt>
      <trkpt lat="44.28183" lon="6.09254">
        <ele>1641.5999755859</ele>
        <time>2020-08-04T08:52:16Z</time>
      </trkpt>
      <trkpt lat="44.28188" lon="6.09254">
        <ele>1644.5999755859</ele>
        <time>2020-08-04T08:52:36Z</time>
      </trkpt>
      <trkpt lat="44.28198" lon="6.09254">
        <ele>1647.5999755859</ele>
        <time>2020-08-04T08:52:55Z</time>
      </trkpt>
      <trkpt lat="44.28204" lon="6.09252">
        <ele>1649.5999755859</ele>
        <time>2020-08-04T08:53:15Z</time>
      </trkpt>
      <trkpt lat="44.28204" lon="6.09246">
        <ele>1649.8000488281</ele>
        <time>2020-08-04T08:53:36Z</time>
      </trkpt>
      <trkpt lat="44.28206" lon="6.09246">
        <ele>1649.8000488281</ele>
        <time>2020-08-04T08:53:51Z</time>
      </trkpt>
      <trkpt lat="44.28212" lon="6.09247">
        <ele>1649.1999511719</ele>
        <time>2020-08-04T08:54:13Z</time>
      </trkpt>
      <trkpt lat="44.28213" lon="6.09249">
        <ele>1649</ele>
        <time>2020-08-04T08:54:44Z</time>
      </trkpt>
      <trkpt lat="44.28205" lon="6.09246">
        <ele>1649.4000244141</ele>
        <time>2020-08-04T08:55:12Z</time>
      </trkpt>
      <trkpt lat="44.282" lon="6.09239">
        <ele>1648.4000244141</ele>
        <time>2020-08-04T08:55:31Z</time>
      </trkpt>
      <trkpt lat="44.28202" lon="6.09239">
        <ele>1647.8000488281</ele>
        <time>2020-08-04T08:56:03Z</time>
      </trkpt>
      <trkpt lat="44.28204" lon="6.09238">
        <ele>1646.5999755859</ele>
        <time>2020-08-04T08:56:27Z</time>
      </trkpt>
      <trkpt lat="44.28204" lon="6.09238">
        <ele>1646.8000488281</ele>
        <time>2020-08-04T08:57:13Z</time>
      </trkpt>
      <trkpt lat="44.28201" lon="6.09234">
        <ele>1646.8000488281</ele>
        <time>2020-08-04T08:57:48Z</time>
      </trkpt>
      <trkpt lat="44.28203" lon="6.09236">
        <ele>1646.8000488281</ele>
        <time>2020-08-04T08:58:48Z</time>
      </trkpt>
      <trkpt lat="44.28204" lon="6.09236">
        <ele>1647</ele>
        <time>2020-08-04T08:59:45Z</time>
      </trkpt>
      <trkpt lat="44.28202" lon="6.09232">
        <ele>1647</ele>
        <time>2020-08-04T09:00:44Z</time>
      </trkpt>
      <trkpt lat="44.28204" lon="6.09236">
        <ele>1646.8000488281</ele>
        <time>2020-08-04T09:01:41Z</time>
      </trkpt>
      <trkpt lat="44.28203" lon="6.09237">
        <ele>1647.5999755859</ele>
        <time>2020-08-04T09:02:36Z</time>
      </trkpt>
      <trkpt lat="44.28204" lon="6.0924">
        <ele>1647.8000488281</ele>
        <time>2020-08-04T09:03:37Z</time>
      </trkpt>
      <trkpt lat="44.28207" lon="6.09238">
        <ele>1647.8000488281</ele>
        <time>2020-08-04T09:03:47Z</time>
      </trkpt>
      <trkpt lat="44.28208" lon="6.09238">
        <ele>1648</ele>
        <time>2020-08-04T09:04:05Z</time>
      </trkpt>
      <trkpt lat="44.28206" lon="6.09238">
        <ele>1647.8000488281</ele>
        <time>2020-08-04T09:04:30Z</time>
      </trkpt>
      <trkpt lat="44.28206" lon="6.09241">
        <ele>1648</ele>
        <time>2020-08-04T09:05:16Z</time>
      </trkpt>
      <trkpt lat="44.28209" lon="6.09248">
        <ele>1648.4000244141</ele>
        <time>2020-08-04T09:05:46Z</time>
      </trkpt>
      <trkpt lat="44.28207" lon="6.09248">
        <ele>1649.8000488281</ele>
        <time>2020-08-04T09:06:09Z</time>
      </trkpt>
      <trkpt lat="44.28212" lon="6.09261">
        <ele>1650.1999511719</ele>
        <time>2020-08-04T09:06:31Z</time>
      </trkpt>
      <trkpt lat="44.28217" lon="6.0927">
        <ele>1652.4000244141</ele>
        <time>2020-08-04T09:06:53Z</time>
      </trkpt>
      <trkpt lat="44.28226" lon="6.09272">
        <ele>1655.1999511719</ele>
        <time>2020-08-04T09:07:15Z</time>
      </trkpt>
      <trkpt lat="44.2823" lon="6.09283">
        <ele>1658.1999511719</ele>
        <time>2020-08-04T09:07:37Z</time>
      </trkpt>
      <trkpt lat="44.28237" lon="6.09292">
        <ele>1661.4000244141</ele>
        <time>2020-08-04T09:08:00Z</time>
      </trkpt>
      <trkpt lat="44.28243" lon="6.09311">
        <ele>1664.4000244141</ele>
        <time>2020-08-04T09:08:24Z</time>
      </trkpt>
      <trkpt lat="44.28246" lon="6.09316">
        <ele>1667.1999511719</ele>
        <time>2020-08-04T09:08:49Z</time>
      </trkpt>
      <trkpt lat="44.28247" lon="6.09331">
        <ele>1668</ele>
        <time>2020-08-04T09:09:12Z</time>
      </trkpt>
      <trkpt lat="44.28243" lon="6.09342">
        <ele>1671.1999511719</ele>
        <time>2020-08-04T09:09:32Z</time>
      </trkpt>
      <trkpt lat="44.28241" lon="6.09351">
        <ele>1674.1999511719</ele>
        <time>2020-08-04T09:09:55Z</time>
      </trkpt>
      <trkpt lat="44.28246" lon="6.09359">
        <ele>1677.4000244141</ele>
        <time>2020-08-04T09:10:13Z</time>
      </trkpt>
      <trkpt lat="44.28252" lon="6.09364">
        <ele>1680.4000244141</ele>
        <time>2020-08-04T09:10:28Z</time>
      </trkpt>
      <trkpt lat="44.28258" lon="6.09365">
        <ele>1683.5999755859</ele>
        <time>2020-08-04T09:10:47Z</time>
      </trkpt>
      <trkpt lat="44.28252" lon="6.09374">
        <ele>1686.8000488281</ele>
        <time>2020-08-04T09:11:07Z</time>
      </trkpt>
      <trkpt lat="44.28242" lon="6.09383">
        <ele>1690</ele>
        <time>2020-08-04T09:11:27Z</time>
      </trkpt>
      <trkpt lat="44.28239" lon="6.0939">
        <ele>1690.8000488281</ele>
        <time>2020-08-04T09:12:05Z</time>
      </trkpt>
      <trkpt lat="44.28229" lon="6.09398">
        <ele>1690.5999755859</ele>
        <time>2020-08-04T09:12:28Z</time>
      </trkpt>
      <trkpt lat="44.28214" lon="6.09414">
        <ele>1690.5999755859</ele>
        <time>2020-08-04T09:12:51Z</time>
      </trkpt>
      <trkpt lat="44.28206" lon="6.09421">
        <ele>1689</ele>
        <time>2020-08-04T09:13:18Z</time>
      </trkpt>
      <trkpt lat="44.28181" lon="6.09452">
        <ele>1688</ele>
        <time>2020-08-04T09:13:49Z</time>
      </trkpt>
      <trkpt lat="44.28169" lon="6.09466">
        <ele>1689.4000244141</ele>
        <time>2020-08-04T09:14:05Z</time>
      </trkpt>
      <trkpt lat="44.28162" lon="6.09482">
        <ele>1692.4000244141</ele>
        <time>2020-08-04T09:14:21Z</time>
      </trkpt>
      <trkpt lat="44.28162" lon="6.09485">
        <ele>1694.5999755859</ele>
        <time>2020-08-04T09:14:46Z</time>
      </trkpt>
      <trkpt lat="44.28157" lon="6.09497">
        <ele>1697</ele>
        <time>2020-08-04T09:15:14Z</time>
      </trkpt>
      <trkpt lat="44.2815" lon="6.09519">
        <ele>1699</ele>
        <time>2020-08-04T09:15:35Z</time>
      </trkpt>
      <trkpt lat="44.28155" lon="6.09526">
        <ele>1700</ele>
        <time>2020-08-04T09:16:04Z</time>
      </trkpt>
      <trkpt lat="44.28141" lon="6.09539">
        <ele>1701.4000244141</ele>
        <time>2020-08-04T09:16:26Z</time>
      </trkpt>
      <trkpt lat="44.28137" lon="6.09559">
        <ele>1704.4000244141</ele>
        <time>2020-08-04T09:16:49Z</time>
      </trkpt>
      <trkpt lat="44.28127" lon="6.09576">
        <ele>1707.5999755859</ele>
        <time>2020-08-04T09:17:13Z</time>
      </trkpt>
      <trkpt lat="44.28127" lon="6.09592">
        <ele>1710.5999755859</ele>
        <time>2020-08-04T09:17:40Z</time>
      </trkpt>
      <trkpt lat="44.2813" lon="6.09598">
        <ele>1713.5999755859</ele>
        <time>2020-08-04T09:17:57Z</time>
      </trkpt>
      <trkpt lat="44.28128" lon="6.09605">
        <ele>1716.8000488281</ele>
        <time>2020-08-04T09:18:14Z</time>
      </trkpt>
      <trkpt lat="44.28128" lon="6.09614">
        <ele>1719.8000488281</ele>
        <time>2020-08-04T09:18:30Z</time>
      </trkpt>
      <trkpt lat="44.28133" lon="6.09623">
        <ele>1722.8000488281</ele>
        <time>2020-08-04T09:18:50Z</time>
      </trkpt>
      <trkpt lat="44.28135" lon="6.09628">
        <ele>1726</ele>
        <time>2020-08-04T09:19:10Z</time>
      </trkpt>
      <trkpt lat="44.28143" lon="6.09629">
        <ele>1728.8000488281</ele>
        <time>2020-08-04T09:19:34Z</time>
      </trkpt>
      <trkpt lat="44.28146" lon="6.09633">
        <ele>1732</ele>
        <time>2020-08-04T09:20:03Z</time>
      </trkpt>
      <trkpt lat="44.28149" lon="6.09629">
        <ele>1733</ele>
        <time>2020-08-04T09:20:27Z</time>
      </trkpt>
      <trkpt lat="44.28151" lon="6.09641">
        <ele>1736</ele>
        <time>2020-08-04T09:20:49Z</time>
      </trkpt>
      <trkpt lat="44.28149" lon="6.09654">
        <ele>1739</ele>
        <time>2020-08-04T09:20:59Z</time>
      </trkpt>
      <trkpt lat="44.28132" lon="6.09677">
        <ele>1741.5999755859</ele>
        <time>2020-08-04T09:21:28Z</time>
      </trkpt>
      <trkpt lat="44.28124" lon="6.09692">
        <ele>1742.5999755859</ele>
        <time>2020-08-04T09:21:47Z</time>
      </trkpt>
      <trkpt lat="44.2812" lon="6.097">
        <ele>1743</ele>
        <time>2020-08-04T09:21:54Z</time>
      </trkpt>
      <trkpt lat="44.28115" lon="6.09708">
        <ele>1743.5999755859</ele>
        <time>2020-08-04T09:22:01Z</time>
      </trkpt>
      <trkpt lat="44.28106" lon="6.09727">
        <ele>1745.8000488281</ele>
        <time>2020-08-04T09:22:19Z</time>
      </trkpt>
      <trkpt lat="44.28096" lon="6.09742">
        <ele>1747.5999755859</ele>
        <time>2020-08-04T09:22:36Z</time>
      </trkpt>
      <trkpt lat="44.28088" lon="6.09758">
        <ele>1749</ele>
        <time>2020-08-04T09:22:52Z</time>
      </trkpt>
      <trkpt lat="44.2808" lon="6.09773">
        <ele>1752.4000244141</ele>
        <time>2020-08-04T09:23:06Z</time>
      </trkpt>
      <trkpt lat="44.28071" lon="6.09791">
        <ele>1755.4000244141</ele>
        <time>2020-08-04T09:23:29Z</time>
      </trkpt>
      <trkpt lat="44.28073" lon="6.09792">
        <ele>1756</ele>
        <time>2020-08-04T09:24:00Z</time>
      </trkpt>
      <trkpt lat="44.28064" lon="6.09805">
        <ele>1757.1999511719</ele>
        <time>2020-08-04T09:24:22Z</time>
      </trkpt>
      <trkpt lat="44.28054" lon="6.0982">
        <ele>1759.1999511719</ele>
        <time>2020-08-04T09:24:45Z</time>
      </trkpt>
      <trkpt lat="44.28047" lon="6.09827">
        <ele>1759.8000488281</ele>
        <time>2020-08-04T09:24:55Z</time>
      </trkpt>
      <trkpt lat="44.28037" lon="6.09845">
        <ele>1761.8000488281</ele>
        <time>2020-08-04T09:25:13Z</time>
      </trkpt>
      <trkpt lat="44.28026" lon="6.09865">
        <ele>1764.8000488281</ele>
        <time>2020-08-04T09:25:38Z</time>
      </trkpt>
      <trkpt lat="44.28017" lon="6.0988">
        <ele>1767</ele>
        <time>2020-08-04T09:26:01Z</time>
      </trkpt>
      <trkpt lat="44.28005" lon="6.09908">
        <ele>1769.8000488281</ele>
        <time>2020-08-04T09:26:29Z</time>
      </trkpt>
      <trkpt lat="44.27995" lon="6.09927">
        <ele>1772.8000488281</ele>
        <time>2020-08-04T09:26:52Z</time>
      </trkpt>
      <trkpt lat="44.27985" lon="6.0996">
        <ele>1775.4000244141</ele>
        <time>2020-08-04T09:27:23Z</time>
      </trkpt>
      <trkpt lat="44.27974" lon="6.09973">
        <ele>1777</ele>
        <time>2020-08-04T09:27:44Z</time>
      </trkpt>
      <trkpt lat="44.27969" lon="6.09973">
        <ele>1776</ele>
        <time>2020-08-04T09:28:09Z</time>
      </trkpt>
      <trkpt lat="44.27968" lon="6.0998">
        <ele>1776.5999755859</ele>
        <time>2020-08-04T09:29:05Z</time>
      </trkpt>
      <trkpt lat="44.27955" lon="6.1">
        <ele>1779.4000244141</ele>
        <time>2020-08-04T09:29:28Z</time>
      </trkpt>
      <trkpt lat="44.27946" lon="6.10015">
        <ele>1782.4000244141</ele>
        <time>2020-08-04T09:29:45Z</time>
      </trkpt>
      <trkpt lat="44.27928" lon="6.10036">
        <ele>1784.1999511719</ele>
        <time>2020-08-04T09:30:09Z</time>
      </trkpt>
      <trkpt lat="44.27913" lon="6.10046">
        <ele>1787.1999511719</ele>
        <time>2020-08-04T09:30:31Z</time>
      </trkpt>
      <trkpt lat="44.27903" lon="6.10052">
        <ele>1790.1999511719</ele>
        <time>2020-08-04T09:30:46Z</time>
      </trkpt>
      <trkpt lat="44.2789" lon="6.1007">
        <ele>1793.1999511719</ele>
        <time>2020-08-04T09:31:10Z</time>
      </trkpt>
      <trkpt lat="44.27879" lon="6.10084">
        <ele>1794.4000244141</ele>
        <time>2020-08-04T09:31:27Z</time>
      </trkpt>
      <trkpt lat="44.27864" lon="6.10109">
        <ele>1794.5999755859</ele>
        <time>2020-08-04T09:31:50Z</time>
      </trkpt>
      <trkpt lat="44.27859" lon="6.1012">
        <ele>1795.5999755859</ele>
        <time>2020-08-04T09:32:00Z</time>
      </trkpt>
      <trkpt lat="44.27847" lon="6.10134">
        <ele>1797</ele>
        <time>2020-08-04T09:32:18Z</time>
      </trkpt>
      <trkpt lat="44.27837" lon="6.10147">
        <ele>1800.1999511719</ele>
        <time>2020-08-04T09:32:35Z</time>
      </trkpt>
      <trkpt lat="44.27823" lon="6.10171">
        <ele>1803.1999511719</ele>
        <time>2020-08-04T09:33:00Z</time>
      </trkpt>
      <trkpt lat="44.27814" lon="6.10191">
        <ele>1803.5999755859</ele>
        <time>2020-08-04T09:33:19Z</time>
      </trkpt>
      <trkpt lat="44.27804" lon="6.10208">
        <ele>1805</ele>
        <time>2020-08-04T09:33:36Z</time>
      </trkpt>
      <trkpt lat="44.2779" lon="6.1023">
        <ele>1807.8000488281</ele>
        <time>2020-08-04T09:34:00Z</time>
      </trkpt>
      <trkpt lat="44.27783" lon="6.10241">
        <ele>1810.1999511719</ele>
        <time>2020-08-04T09:34:25Z</time>
      </trkpt>
      <trkpt lat="44.2777" lon="6.1026">
        <ele>1812.8000488281</ele>
        <time>2020-08-04T09:34:52Z</time>
      </trkpt>
      <trkpt lat="44.27764" lon="6.10267">
        <ele>1815.4000244141</ele>
        <time>2020-08-04T09:35:19Z</time>
      </trkpt>
      <trkpt lat="44.27755" lon="6.10286">
        <ele>1818.1999511719</ele>
        <time>2020-08-04T09:35:43Z</time>
      </trkpt>
      <trkpt lat="44.27744" lon="6.1031">
        <ele>1820.5999755859</ele>
        <time>2020-08-04T09:36:09Z</time>
      </trkpt>
      <trkpt lat="44.27741" lon="6.10323">
        <ele>1822.4000244141</ele>
        <time>2020-08-04T09:36:33Z</time>
      </trkpt>
      <trkpt lat="44.27734" lon="6.10346">
        <ele>1823</ele>
        <time>2020-08-04T09:36:57Z</time>
      </trkpt>
      <trkpt lat="44.27729" lon="6.10354">
        <ele>1824.4000244141</ele>
        <time>2020-08-04T09:37:16Z</time>
      </trkpt>
      <trkpt lat="44.27722" lon="6.10367">
        <ele>1825.1999511719</ele>
        <time>2020-08-04T09:37:36Z</time>
      </trkpt>
      <trkpt lat="44.27714" lon="6.10377">
        <ele>1824.8000488281</ele>
        <time>2020-08-04T09:38:00Z</time>
      </trkpt>
      <trkpt lat="44.27703" lon="6.10399">
        <ele>1824.5999755859</ele>
        <time>2020-08-04T09:38:23Z</time>
      </trkpt>
      <trkpt lat="44.277" lon="6.10406">
        <ele>1825.8000488281</ele>
        <time>2020-08-04T09:38:47Z</time>
      </trkpt>
      <trkpt lat="44.27696" lon="6.10416">
        <ele>1827</ele>
        <time>2020-08-04T09:39:06Z</time>
      </trkpt>
      <trkpt lat="44.27699" lon="6.10419">
        <ele>1827</ele>
        <time>2020-08-04T09:39:50Z</time>
      </trkpt>
      <trkpt lat="44.27704" lon="6.10432">
        <ele>1826</ele>
        <time>2020-08-04T09:40:12Z</time>
      </trkpt>
      <trkpt lat="44.27707" lon="6.10433">
        <ele>1828.4000244141</ele>
        <time>2020-08-04T09:40:38Z</time>
      </trkpt>
      <trkpt lat="44.27707" lon="6.10432">
        <ele>1828.5999755859</ele>
        <time>2020-08-04T09:41:09Z</time>
      </trkpt>
      <trkpt lat="44.27706" lon="6.10434">
        <ele>1829</ele>
        <time>2020-08-04T09:41:45Z</time>
      </trkpt>
      <trkpt lat="44.27706" lon="6.10432">
        <ele>1829.4000244141</ele>
        <time>2020-08-04T09:42:55Z</time>
      </trkpt>
      <trkpt lat="44.27705" lon="6.10434">
        <ele>1828.5999755859</ele>
        <time>2020-08-04T09:43:50Z</time>
      </trkpt>
      <trkpt lat="44.27704" lon="6.10424">
        <ele>1827</ele>
        <time>2020-08-04T09:44:38Z</time>
      </trkpt>
      <trkpt lat="44.27704" lon="6.1041">
        <ele>1825</ele>
        <time>2020-08-04T09:44:57Z</time>
      </trkpt>
      <trkpt lat="44.27707" lon="6.10395">
        <ele>1823.5999755859</ele>
        <time>2020-08-04T09:45:20Z</time>
      </trkpt>
      <trkpt lat="44.27705" lon="6.10381">
        <ele>1823.5999755859</ele>
        <time>2020-08-04T09:45:42Z</time>
      </trkpt>
      <trkpt lat="44.27702" lon="6.10377">
        <ele>1824.5999755859</ele>
        <time>2020-08-04T09:46:11Z</time>
      </trkpt>
      <trkpt lat="44.27701" lon="6.10376">
        <ele>1825</ele>
        <time>2020-08-04T09:46:36Z</time>
      </trkpt>
      <trkpt lat="44.27702" lon="6.10377">
        <ele>1824.8000488281</ele>
        <time>2020-08-04T09:47:20Z</time>
      </trkpt>
      <trkpt lat="44.27709" lon="6.10396">
        <ele>1823.8000488281</ele>
        <time>2020-08-04T09:47:43Z</time>
      </trkpt>
      <trkpt lat="44.27709" lon="6.10399">
        <ele>1823.5999755859</ele>
        <time>2020-08-04T09:47:58Z</time>
      </trkpt>
      <trkpt lat="44.27709" lon="6.10399">
        <ele>1823.5999755859</ele>
        <time>2020-08-04T09:48:00Z</time>
      </trkpt>
      <trkpt lat="44.27709" lon="6.10398">
        <ele>1823</ele>
        <time>2020-08-04T09:48:45Z</time>
      </trkpt>
      <trkpt lat="44.27709" lon="6.10397">
        <ele>1823.8000488281</ele>
        <time>2020-08-04T09:50:10Z</time>
      </trkpt>
      <trkpt lat="44.27708" lon="6.10397">
        <ele>1824.4000244141</ele>
        <time>2020-08-04T09:51:21Z</time>
      </trkpt>
      <trkpt lat="44.27708" lon="6.10397">
        <ele>1823.8000488281</ele>
        <time>2020-08-04T09:52:24Z</time>
      </trkpt>
      <trkpt lat="44.27708" lon="6.10397">
        <ele>1823.8000488281</ele>
        <time>2020-08-04T09:53:31Z</time>
      </trkpt>
      <trkpt lat="44.27707" lon="6.10398">
        <ele>1823.1999511719</ele>
        <time>2020-08-04T09:54:42Z</time>
      </trkpt>
      <trkpt lat="44.27707" lon="6.10398">
        <ele>1824</ele>
        <time>2020-08-04T09:56:10Z</time>
      </trkpt>
      <trkpt lat="44.27707" lon="6.10398">
        <ele>1824</ele>
        <time>2020-08-04T09:57:08Z</time>
      </trkpt>
      <trkpt lat="44.27705" lon="6.10399">
        <ele>1823.8000488281</ele>
        <time>2020-08-04T09:58:33Z</time>
      </trkpt>
      <trkpt lat="44.27706" lon="6.10398">
        <ele>1823.5999755859</ele>
        <time>2020-08-04T09:59:54Z</time>
      </trkpt>
      <trkpt lat="44.27707" lon="6.10397">
        <ele>1823.4000244141</ele>
        <time>2020-08-04T10:01:14Z</time>
      </trkpt>
      <trkpt lat="44.27706" lon="6.10397">
        <ele>1823.5999755859</ele>
        <time>2020-08-04T10:02:20Z</time>
      </trkpt>
      <trkpt lat="44.27706" lon="6.10396">
        <ele>1823</ele>
        <time>2020-08-04T10:04:08Z</time>
      </trkpt>
      <trkpt lat="44.27706" lon="6.10395">
        <ele>1822.4000244141</ele>
        <time>2020-08-04T10:05:42Z</time>
      </trkpt>
      <trkpt lat="44.27705" lon="6.10395">
        <ele>1822.5999755859</ele>
        <time>2020-08-04T10:07:07Z</time>
      </trkpt>
      <trkpt lat="44.27705" lon="6.10396">
        <ele>1823</ele>
        <time>2020-08-04T10:08:10Z</time>
      </trkpt>
      <trkpt lat="44.27705" lon="6.10396">
        <ele>1823.1999511719</ele>
        <time>2020-08-04T10:08:51Z</time>
      </trkpt>
      <trkpt lat="44.27706" lon="6.10396">
        <ele>1823.8000488281</ele>
        <time>2020-08-04T10:09:36Z</time>
      </trkpt>
      <trkpt lat="44.27705" lon="6.10396">
        <ele>1823</ele>
        <time>2020-08-04T10:11:11Z</time>
      </trkpt>
      <trkpt lat="44.27705" lon="6.10397">
        <ele>1822</ele>
        <time>2020-08-04T10:13:08Z</time>
      </trkpt>
      <trkpt lat="44.27707" lon="6.10398">
        <ele>1822.4000244141</ele>
        <time>2020-08-04T10:13:46Z</time>
      </trkpt>
      <trkpt lat="44.27707" lon="6.10397">
        <ele>1822.8000488281</ele>
        <time>2020-08-04T10:14:54Z</time>
      </trkpt>
      <trkpt lat="44.27708" lon="6.10397">
        <ele>1822.1999511719</ele>
        <time>2020-08-04T10:16:05Z</time>
      </trkpt>
      <trkpt lat="44.27707" lon="6.10397">
        <ele>1822.1999511719</ele>
        <time>2020-08-04T10:17:15Z</time>
      </trkpt>
      <trkpt lat="44.27707" lon="6.10395">
        <ele>1821.5999755859</ele>
        <time>2020-08-04T10:18:42Z</time>
      </trkpt>
      <trkpt lat="44.27706" lon="6.10397">
        <ele>1821.4000244141</ele>
        <time>2020-08-04T10:20:08Z</time>
      </trkpt>
      <trkpt lat="44.27707" lon="6.10397">
        <ele>1821.8000488281</ele>
        <time>2020-08-04T10:21:32Z</time>
      </trkpt>
      <trkpt lat="44.27707" lon="6.10396">
        <ele>1821.8000488281</ele>
        <time>2020-08-04T10:22:38Z</time>
      </trkpt>
      <trkpt lat="44.27707" lon="6.10395">
        <ele>1822.4000244141</ele>
        <time>2020-08-04T10:23:43Z</time>
      </trkpt>
      <trkpt lat="44.27707" lon="6.10394">
        <ele>1822.4000244141</ele>
        <time>2020-08-04T10:24:39Z</time>
      </trkpt>
      <trkpt lat="44.27708" lon="6.10394">
        <ele>1822.5999755859</ele>
        <time>2020-08-04T10:25:46Z</time>
      </trkpt>
      <trkpt lat="44.27709" lon="6.10395">
        <ele>1822.1999511719</ele>
        <time>2020-08-04T10:26:52Z</time>
      </trkpt>
      <trkpt lat="44.27708" lon="6.10396">
        <ele>1822.1999511719</ele>
        <time>2020-08-04T10:28:17Z</time>
      </trkpt>
      <trkpt lat="44.27708" lon="6.10396">
        <ele>1822.1999511719</ele>
        <time>2020-08-04T10:29:53Z</time>
      </trkpt>
      <trkpt lat="44.27707" lon="6.10395">
        <ele>1822.4000244141</ele>
        <time>2020-08-04T10:31:01Z</time>
      </trkpt>
      <trkpt lat="44.27707" lon="6.10396">
        <ele>1821.5999755859</ele>
        <time>2020-08-04T10:32:27Z</time>
      </trkpt>
      <trkpt lat="44.27707" lon="6.10396">
        <ele>1822.8000488281</ele>
        <time>2020-08-04T10:33:36Z</time>
      </trkpt>
      <trkpt lat="44.27708" lon="6.10396">
        <ele>1823.5999755859</ele>
        <time>2020-08-04T10:34:18Z</time>
      </trkpt>
      <trkpt lat="44.27703" lon="6.1039">
        <ele>1823.1999511719</ele>
        <time>2020-08-04T10:34:47Z</time>
      </trkpt>
      <trkpt lat="44.27699" lon="6.10387">
        <ele>1824.4000244141</ele>
        <time>2020-08-04T10:35:08Z</time>
      </trkpt>
      <trkpt lat="44.27689" lon="6.1039">
        <ele>1827.5999755859</ele>
        <time>2020-08-04T10:35:32Z</time>
      </trkpt>
      <trkpt lat="44.2768" lon="6.10397">
        <ele>1830.5999755859</ele>
        <time>2020-08-04T10:35:55Z</time>
      </trkpt>
      <trkpt lat="44.27668" lon="6.10403">
        <ele>1833.5999755859</ele>
        <time>2020-08-04T10:36:15Z</time>
      </trkpt>
      <trkpt lat="44.27658" lon="6.10413">
        <ele>1835.4000244141</ele>
        <time>2020-08-04T10:36:42Z</time>
      </trkpt>
      <trkpt lat="44.27648" lon="6.10421">
        <ele>1838.4000244141</ele>
        <time>2020-08-04T10:37:02Z</time>
      </trkpt>
      <trkpt lat="44.27635" lon="6.10435">
        <ele>1841</ele>
        <time>2020-08-04T10:37:27Z</time>
      </trkpt>
      <trkpt lat="44.27621" lon="6.1045">
        <ele>1842.4000244141</ele>
        <time>2020-08-04T10:37:53Z</time>
      </trkpt>
      <trkpt lat="44.27608" lon="6.10459">
        <ele>1843.4000244141</ele>
        <time>2020-08-04T10:38:17Z</time>
      </trkpt>
      <trkpt lat="44.27592" lon="6.1046">
        <ele>1844.4000244141</ele>
        <time>2020-08-04T10:38:42Z</time>
      </trkpt>
      <trkpt lat="44.27586" lon="6.1046">
        <ele>1845.1999511719</ele>
        <time>2020-08-04T10:38:49Z</time>
      </trkpt>
      <trkpt lat="44.27575" lon="6.10461">
        <ele>1847</ele>
        <time>2020-08-04T10:39:06Z</time>
      </trkpt>
      <trkpt lat="44.27567" lon="6.10469">
        <ele>1850</ele>
        <time>2020-08-04T10:39:24Z</time>
      </trkpt>
      <trkpt lat="44.27556" lon="6.10483">
        <ele>1851.4000244141</ele>
        <time>2020-08-04T10:39:43Z</time>
      </trkpt>
      <trkpt lat="44.27549" lon="6.10496">
        <ele>1853.4000244141</ele>
        <time>2020-08-04T10:40:07Z</time>
      </trkpt>
      <trkpt lat="44.2754" lon="6.10509">
        <ele>1855.8000488281</ele>
        <time>2020-08-04T10:40:31Z</time>
      </trkpt>
      <trkpt lat="44.27537" lon="6.10517">
        <ele>1858.8000488281</ele>
        <time>2020-08-04T10:40:50Z</time>
      </trkpt>
      <trkpt lat="44.27531" lon="6.10524">
        <ele>1862</ele>
        <time>2020-08-04T10:41:09Z</time>
      </trkpt>
      <trkpt lat="44.27524" lon="6.10532">
        <ele>1864.4000244141</ele>
        <time>2020-08-04T10:41:32Z</time>
      </trkpt>
      <trkpt lat="44.27513" lon="6.10549">
        <ele>1867.4000244141</ele>
        <time>2020-08-04T10:41:56Z</time>
      </trkpt>
      <trkpt lat="44.27498" lon="6.10559">
        <ele>1867.5999755859</ele>
        <time>2020-08-04T10:42:15Z</time>
      </trkpt>
      <trkpt lat="44.27487" lon="6.10567">
        <ele>1870.8000488281</ele>
        <time>2020-08-04T10:42:33Z</time>
      </trkpt>
      <trkpt lat="44.27474" lon="6.10575">
        <ele>1873.5999755859</ele>
        <time>2020-08-04T10:42:52Z</time>
      </trkpt>
      <trkpt lat="44.2746" lon="6.1058">
        <ele>1876.4000244141</ele>
        <time>2020-08-04T10:43:11Z</time>
      </trkpt>
      <trkpt lat="44.27448" lon="6.10585">
        <ele>1879.5999755859</ele>
        <time>2020-08-04T10:43:28Z</time>
      </trkpt>
      <trkpt lat="44.27437" lon="6.10589">
        <ele>1882.4000244141</ele>
        <time>2020-08-04T10:43:57Z</time>
      </trkpt>
      <trkpt lat="44.27436" lon="6.10586">
        <ele>1881</ele>
        <time>2020-08-04T10:44:17Z</time>
      </trkpt>
      <trkpt lat="44.27435" lon="6.10586">
        <ele>1881.1999511719</ele>
        <time>2020-08-04T10:45:18Z</time>
      </trkpt>
      <trkpt lat="44.27434" lon="6.10591">
        <ele>1880.8000488281</ele>
        <time>2020-08-04T10:45:49Z</time>
      </trkpt>
      <trkpt lat="44.27433" lon="6.10594">
        <ele>1880.4000244141</ele>
        <time>2020-08-04T10:46:19Z</time>
      </trkpt>
      <trkpt lat="44.27434" lon="6.10593">
        <ele>1880.5999755859</ele>
        <time>2020-08-04T10:47:11Z</time>
      </trkpt>
      <trkpt lat="44.27433" lon="6.10593">
        <ele>1880.4000244141</ele>
        <time>2020-08-04T10:48:09Z</time>
      </trkpt>
      <trkpt lat="44.27433" lon="6.10594">
        <ele>1880</ele>
        <time>2020-08-04T10:50:10Z</time>
      </trkpt>
      <trkpt lat="44.27432" lon="6.10593">
        <ele>1879.4000244141</ele>
        <time>2020-08-04T10:51:32Z</time>
      </trkpt>
      <trkpt lat="44.27434" lon="6.10593">
        <ele>1879.8000488281</ele>
        <time>2020-08-04T10:53:05Z</time>
      </trkpt>
      <trkpt lat="44.27432" lon="6.10581">
        <ele>1880</ele>
        <time>2020-08-04T10:53:37Z</time>
      </trkpt>
      <trkpt lat="44.27433" lon="6.1058">
        <ele>1880.1999511719</ele>
        <time>2020-08-04T10:53:55Z</time>
      </trkpt>
      <trkpt lat="44.27436" lon="6.10579">
        <ele>1880.4000244141</ele>
        <time>2020-08-04T10:54:13Z</time>
      </trkpt>
      <trkpt lat="44.27445" lon="6.10581">
        <ele>1879.5999755859</ele>
        <time>2020-08-04T10:54:35Z</time>
      </trkpt>
      <trkpt lat="44.27461" lon="6.10578">
        <ele>1877.4000244141</ele>
        <time>2020-08-04T10:54:55Z</time>
      </trkpt>
      <trkpt lat="44.27469" lon="6.10576">
        <ele>1876.5999755859</ele>
        <time>2020-08-04T10:55:04Z</time>
      </trkpt>
      <trkpt lat="44.27478" lon="6.1057">
        <ele>1873.8000488281</ele>
        <time>2020-08-04T10:55:15Z</time>
      </trkpt>
      <trkpt lat="44.27485" lon="6.10566">
        <ele>1872.4000244141</ele>
        <time>2020-08-04T10:55:23Z</time>
      </trkpt>
      <trkpt lat="44.275" lon="6.10557">
        <ele>1869.1999511719</ele>
        <time>2020-08-04T10:55:41Z</time>
      </trkpt>
      <trkpt lat="44.27511" lon="6.10552">
        <ele>1866.4000244141</ele>
        <time>2020-08-04T10:55:54Z</time>
      </trkpt>
      <trkpt lat="44.27519" lon="6.10542">
        <ele>1864.5999755859</ele>
        <time>2020-08-04T10:56:08Z</time>
      </trkpt>
      <trkpt lat="44.27527" lon="6.10527">
        <ele>1864</ele>
        <time>2020-08-04T10:56:27Z</time>
      </trkpt>
      <trkpt lat="44.27532" lon="6.10516">
        <ele>1861</ele>
        <time>2020-08-04T10:56:47Z</time>
      </trkpt>
      <trkpt lat="44.27539" lon="6.10511">
        <ele>1858.5999755859</ele>
        <time>2020-08-04T10:57:05Z</time>
      </trkpt>
      <trkpt lat="44.27541" lon="6.10502">
        <ele>1855.5999755859</ele>
        <time>2020-08-04T10:57:25Z</time>
      </trkpt>
      <trkpt lat="44.27545" lon="6.10488">
        <ele>1852.4000244141</ele>
        <time>2020-08-04T10:57:42Z</time>
      </trkpt>
      <trkpt lat="44.27552" lon="6.10475">
        <ele>1850.5999755859</ele>
        <time>2020-08-04T10:58:01Z</time>
      </trkpt>
      <trkpt lat="44.27559" lon="6.10466">
        <ele>1849.1999511719</ele>
        <time>2020-08-04T10:58:11Z</time>
      </trkpt>
      <trkpt lat="44.27569" lon="6.10463">
        <ele>1848.4000244141</ele>
        <time>2020-08-04T10:58:31Z</time>
      </trkpt>
      <trkpt lat="44.27579" lon="6.10462">
        <ele>1847.8000488281</ele>
        <time>2020-08-04T10:58:45Z</time>
      </trkpt>
      <trkpt lat="44.27588" lon="6.10461">
        <ele>1846.4000244141</ele>
        <time>2020-08-04T10:58:57Z</time>
      </trkpt>
      <trkpt lat="44.27589" lon="6.10458">
        <ele>1843.8000488281</ele>
        <time>2020-08-04T10:59:12Z</time>
      </trkpt>
      <trkpt lat="44.276" lon="6.10457">
        <ele>1842.4000244141</ele>
        <time>2020-08-04T10:59:24Z</time>
      </trkpt>
      <trkpt lat="44.27616" lon="6.10455">
        <ele>1841.4000244141</ele>
        <time>2020-08-04T10:59:43Z</time>
      </trkpt>
      <trkpt lat="44.27624" lon="6.10443">
        <ele>1840.8000488281</ele>
        <time>2020-08-04T10:59:59Z</time>
      </trkpt>
      <trkpt lat="44.27633" lon="6.10432">
        <ele>1839.1999511719</ele>
        <time>2020-08-04T11:00:16Z</time>
      </trkpt>
      <trkpt lat="44.27642" lon="6.1042">
        <ele>1837.5999755859</ele>
        <time>2020-08-04T11:00:37Z</time>
      </trkpt>
      <trkpt lat="44.2765" lon="6.10408">
        <ele>1834.8000488281</ele>
        <time>2020-08-04T11:00:57Z</time>
      </trkpt>
      <trkpt lat="44.27655" lon="6.10397">
        <ele>1832</ele>
        <time>2020-08-04T11:01:17Z</time>
      </trkpt>
      <trkpt lat="44.2766" lon="6.10389">
        <ele>1829</ele>
        <time>2020-08-04T11:01:36Z</time>
      </trkpt>
      <trkpt lat="44.27666" lon="6.10373">
        <ele>1826</ele>
        <time>2020-08-04T11:01:59Z</time>
      </trkpt>
      <trkpt lat="44.27672" lon="6.10369">
        <ele>1823</ele>
        <time>2020-08-04T11:02:21Z</time>
      </trkpt>
      <trkpt lat="44.27677" lon="6.10365">
        <ele>1821</ele>
        <time>2020-08-04T11:02:43Z</time>
      </trkpt>
      <trkpt lat="44.2768" lon="6.10363">
        <ele>1819</ele>
        <time>2020-08-04T11:02:57Z</time>
      </trkpt>
      <trkpt lat="44.27684" lon="6.10358">
        <ele>1817</ele>
        <time>2020-08-04T11:03:18Z</time>
      </trkpt>
      <trkpt lat="44.27684" lon="6.10351">
        <ele>1814.1999511719</ele>
        <time>2020-08-04T11:03:45Z</time>
      </trkpt>
      <trkpt lat="44.27683" lon="6.10343">
        <ele>1811</ele>
        <time>2020-08-04T11:04:06Z</time>
      </trkpt>
      <trkpt lat="44.27686" lon="6.1033">
        <ele>1808.1999511719</ele>
        <time>2020-08-04T11:04:25Z</time>
      </trkpt>
      <trkpt lat="44.27694" lon="6.10305">
        <ele>1805.8000488281</ele>
        <time>2020-08-04T11:04:43Z</time>
      </trkpt>
      <trkpt lat="44.27701" lon="6.10283">
        <ele>1802.8000488281</ele>
        <time>2020-08-04T11:05:02Z</time>
      </trkpt>
      <trkpt lat="44.27704" lon="6.1027">
        <ele>1799.8000488281</ele>
        <time>2020-08-04T11:05:21Z</time>
      </trkpt>
      <trkpt lat="44.27711" lon="6.10261">
        <ele>1796.5999755859</ele>
        <time>2020-08-04T11:05:41Z</time>
      </trkpt>
      <trkpt lat="44.27714" lon="6.10251">
        <ele>1793.5999755859</ele>
        <time>2020-08-04T11:05:57Z</time>
      </trkpt>
      <trkpt lat="44.27717" lon="6.10246">
        <ele>1791</ele>
        <time>2020-08-04T11:06:15Z</time>
      </trkpt>
      <trkpt lat="44.27724" lon="6.10236">
        <ele>1788.1999511719</ele>
        <time>2020-08-04T11:06:38Z</time>
      </trkpt>
      <trkpt lat="44.27734" lon="6.10224">
        <ele>1785.1999511719</ele>
        <time>2020-08-04T11:06:58Z</time>
      </trkpt>
      <trkpt lat="44.27742" lon="6.10208">
        <ele>1782.8000488281</ele>
        <time>2020-08-04T11:07:19Z</time>
      </trkpt>
      <trkpt lat="44.27747" lon="6.10202">
        <ele>1782</ele>
        <time>2020-08-04T11:07:28Z</time>
      </trkpt>
      <trkpt lat="44.27753" lon="6.10187">
        <ele>1781</ele>
        <time>2020-08-04T11:07:44Z</time>
      </trkpt>
      <trkpt lat="44.27759" lon="6.10172">
        <ele>1778.1999511719</ele>
        <time>2020-08-04T11:08:05Z</time>
      </trkpt>
      <trkpt lat="44.27763" lon="6.10158">
        <ele>1775.1999511719</ele>
        <time>2020-08-04T11:08:22Z</time>
      </trkpt>
      <trkpt lat="44.27768" lon="6.10139">
        <ele>1773</ele>
        <time>2020-08-04T11:08:40Z</time>
      </trkpt>
      <trkpt lat="44.27776" lon="6.10121">
        <ele>1771</ele>
        <time>2020-08-04T11:09:02Z</time>
      </trkpt>
      <trkpt lat="44.27784" lon="6.101">
        <ele>1768.1999511719</ele>
        <time>2020-08-04T11:09:25Z</time>
      </trkpt>
      <trkpt lat="44.27788" lon="6.10086">
        <ele>1766.4000244141</ele>
        <time>2020-08-04T11:09:42Z</time>
      </trkpt>
      <trkpt lat="44.27793" lon="6.10074">
        <ele>1765.4000244141</ele>
        <time>2020-08-04T11:09:56Z</time>
      </trkpt>
      <trkpt lat="44.27805" lon="6.10067">
        <ele>1764.1999511719</ele>
        <time>2020-08-04T11:10:16Z</time>
      </trkpt>
      <trkpt lat="44.27812" lon="6.10064">
        <ele>1763.1999511719</ele>
        <time>2020-08-04T11:10:26Z</time>
      </trkpt>
      <trkpt lat="44.27816" lon="6.10053">
        <ele>1759.5999755859</ele>
        <time>2020-08-04T11:10:35Z</time>
      </trkpt>
      <trkpt lat="44.27817" lon="6.10053">
        <ele>1759.4000244141</ele>
        <time>2020-08-04T11:10:36Z</time>
      </trkpt>
      <trkpt lat="44.27827" lon="6.10036">
        <ele>1758</ele>
        <time>2020-08-04T11:10:54Z</time>
      </trkpt>
      <trkpt lat="44.27838" lon="6.1002">
        <ele>1756.8000488281</ele>
        <time>2020-08-04T11:11:14Z</time>
      </trkpt>
      <trkpt lat="44.27846" lon="6.10007">
        <ele>1754</ele>
        <time>2020-08-04T11:11:37Z</time>
      </trkpt>
      <trkpt lat="44.27854" lon="6.09993">
        <ele>1750.8000488281</ele>
        <time>2020-08-04T11:11:53Z</time>
      </trkpt>
      <trkpt lat="44.27863" lon="6.0998">
        <ele>1748.8000488281</ele>
        <time>2020-08-04T11:12:12Z</time>
      </trkpt>
      <trkpt lat="44.27866" lon="6.09965">
        <ele>1747.4000244141</ele>
        <time>2020-08-04T11:12:37Z</time>
      </trkpt>
      <trkpt lat="44.27875" lon="6.09945">
        <ele>1744.8000488281</ele>
        <time>2020-08-04T11:13:05Z</time>
      </trkpt>
      <trkpt lat="44.27888" lon="6.09932">
        <ele>1743.8000488281</ele>
        <time>2020-08-04T11:13:24Z</time>
      </trkpt>
      <trkpt lat="44.27904" lon="6.09921">
        <ele>1744.4000244141</ele>
        <time>2020-08-04T11:13:49Z</time>
      </trkpt>
      <trkpt lat="44.27911" lon="6.09913">
        <ele>1744.5999755859</ele>
        <time>2020-08-04T11:14:01Z</time>
      </trkpt>
      <trkpt lat="44.27918" lon="6.09901">
        <ele>1744.4000244141</ele>
        <time>2020-08-04T11:14:14Z</time>
      </trkpt>
      <trkpt lat="44.2793" lon="6.09885">
        <ele>1743</ele>
        <time>2020-08-04T11:14:31Z</time>
      </trkpt>
      <trkpt lat="44.27944" lon="6.09867">
        <ele>1740.5999755859</ele>
        <time>2020-08-04T11:14:51Z</time>
      </trkpt>
      <trkpt lat="44.27958" lon="6.09851">
        <ele>1738.4000244141</ele>
        <time>2020-08-04T11:15:09Z</time>
      </trkpt>
      <trkpt lat="44.27967" lon="6.09835">
        <ele>1737.5999755859</ele>
        <time>2020-08-04T11:15:25Z</time>
      </trkpt>
      <trkpt lat="44.27976" lon="6.09821">
        <ele>1736.1999511719</ele>
        <time>2020-08-04T11:15:39Z</time>
      </trkpt>
      <trkpt lat="44.27986" lon="6.09801">
        <ele>1732.8000488281</ele>
        <time>2020-08-04T11:15:58Z</time>
      </trkpt>
      <trkpt lat="44.27997" lon="6.09781">
        <ele>1730.1999511719</ele>
        <time>2020-08-04T11:16:19Z</time>
      </trkpt>
      <trkpt lat="44.28002" lon="6.09767">
        <ele>1727</ele>
        <time>2020-08-04T11:16:35Z</time>
      </trkpt>
      <trkpt lat="44.28013" lon="6.09747">
        <ele>1724</ele>
        <time>2020-08-04T11:16:54Z</time>
      </trkpt>
      <trkpt lat="44.28021" lon="6.09728">
        <ele>1721</ele>
        <time>2020-08-04T11:17:12Z</time>
      </trkpt>
      <trkpt lat="44.28029" lon="6.09712">
        <ele>1719.8000488281</ele>
        <time>2020-08-04T11:17:30Z</time>
      </trkpt>
      <trkpt lat="44.28037" lon="6.09692">
        <ele>1716.5999755859</ele>
        <time>2020-08-04T11:17:49Z</time>
      </trkpt>
      <trkpt lat="44.28043" lon="6.09671">
        <ele>1714</ele>
        <time>2020-08-04T11:18:07Z</time>
      </trkpt>
      <trkpt lat="44.28048" lon="6.09662">
        <ele>1712.4000244141</ele>
        <time>2020-08-04T11:18:17Z</time>
      </trkpt>
      <trkpt lat="44.28049" lon="6.09656">
        <ele>1712</ele>
        <time>2020-08-04T11:18:21Z</time>
      </trkpt>
      <trkpt lat="44.2805" lon="6.09652">
        <ele>1711.5999755859</ele>
        <time>2020-08-04T11:18:24Z</time>
      </trkpt>
      <trkpt lat="44.28053" lon="6.09647">
        <ele>1710.5999755859</ele>
        <time>2020-08-04T11:18:28Z</time>
      </trkpt>
      <trkpt lat="44.28068" lon="6.09631">
        <ele>1707.4000244141</ele>
        <time>2020-08-04T11:18:46Z</time>
      </trkpt>
      <trkpt lat="44.28071" lon="6.09626">
        <ele>1706.5999755859</ele>
        <time>2020-08-04T11:18:51Z</time>
      </trkpt>
      <trkpt lat="44.28082" lon="6.09603">
        <ele>1704.5999755859</ele>
        <time>2020-08-04T11:19:11Z</time>
      </trkpt>
      <trkpt lat="44.28101" lon="6.09582">
        <ele>1704</ele>
        <time>2020-08-04T11:19:34Z</time>
      </trkpt>
      <trkpt lat="44.28113" lon="6.09569">
        <ele>1703.1999511719</ele>
        <time>2020-08-04T11:19:52Z</time>
      </trkpt>
      <trkpt lat="44.28123" lon="6.09556">
        <ele>1701.5999755859</ele>
        <time>2020-08-04T11:20:07Z</time>
      </trkpt>
      <trkpt lat="44.28124" lon="6.09555">
        <ele>1701.5999755859</ele>
        <time>2020-08-04T11:20:08Z</time>
      </trkpt>
      <trkpt lat="44.28128" lon="6.09549">
        <ele>1701</ele>
        <time>2020-08-04T11:20:15Z</time>
      </trkpt>
      <trkpt lat="44.28139" lon="6.09537">
        <ele>1700.1999511719</ele>
        <time>2020-08-04T11:20:36Z</time>
      </trkpt>
      <trkpt lat="44.28141" lon="6.09522">
        <ele>1698.4000244141</ele>
        <time>2020-08-04T11:20:51Z</time>
      </trkpt>
      <trkpt lat="44.28144" lon="6.09508">
        <ele>1696.5999755859</ele>
        <time>2020-08-04T11:21:04Z</time>
      </trkpt>
      <trkpt lat="44.28145" lon="6.09506">
        <ele>1696.4000244141</ele>
        <time>2020-08-04T11:21:06Z</time>
      </trkpt>
      <trkpt lat="44.28154" lon="6.09485">
        <ele>1693.1999511719</ele>
        <time>2020-08-04T11:21:26Z</time>
      </trkpt>
      <trkpt lat="44.28162" lon="6.09464">
        <ele>1690</ele>
        <time>2020-08-04T11:21:46Z</time>
      </trkpt>
      <trkpt lat="44.28172" lon="6.09447">
        <ele>1687</ele>
        <time>2020-08-04T11:22:02Z</time>
      </trkpt>
      <trkpt lat="44.28186" lon="6.09431">
        <ele>1684</ele>
        <time>2020-08-04T11:22:19Z</time>
      </trkpt>
      <trkpt lat="44.28189" lon="6.09429">
        <ele>1683.5999755859</ele>
        <time>2020-08-04T11:22:22Z</time>
      </trkpt>
      <trkpt lat="44.28205" lon="6.09411">
        <ele>1683.4000244141</ele>
        <time>2020-08-04T11:22:42Z</time>
      </trkpt>
      <trkpt lat="44.28214" lon="6.09404">
        <ele>1684.4000244141</ele>
        <time>2020-08-04T11:22:54Z</time>
      </trkpt>
      <trkpt lat="44.28227" lon="6.09388">
        <ele>1685.5999755859</ele>
        <time>2020-08-04T11:23:10Z</time>
      </trkpt>
      <trkpt lat="44.28243" lon="6.09375">
        <ele>1686.4000244141</ele>
        <time>2020-08-04T11:23:31Z</time>
      </trkpt>
      <trkpt lat="44.28246" lon="6.09369">
        <ele>1686.1999511719</ele>
        <time>2020-08-04T11:23:48Z</time>
      </trkpt>
      <trkpt lat="44.28257" lon="6.09361">
        <ele>1684</ele>
        <time>2020-08-04T11:24:05Z</time>
      </trkpt>
      <trkpt lat="44.28255" lon="6.09356">
        <ele>1681</ele>
        <time>2020-08-04T11:24:19Z</time>
      </trkpt>
      <trkpt lat="44.28247" lon="6.09353">
        <ele>1678</ele>
        <time>2020-08-04T11:24:37Z</time>
      </trkpt>
      <trkpt lat="44.28242" lon="6.09347">
        <ele>1675.4000244141</ele>
        <time>2020-08-04T11:24:52Z</time>
      </trkpt>
      <trkpt lat="44.28239" lon="6.09338">
        <ele>1672.4000244141</ele>
        <time>2020-08-04T11:25:14Z</time>
      </trkpt>
      <trkpt lat="44.28242" lon="6.09325">
        <ele>1669</ele>
        <time>2020-08-04T11:25:32Z</time>
      </trkpt>
      <trkpt lat="44.28242" lon="6.09316">
        <ele>1666</ele>
        <time>2020-08-04T11:25:47Z</time>
      </trkpt>
      <trkpt lat="44.28236" lon="6.09298">
        <ele>1663.4000244141</ele>
        <time>2020-08-04T11:26:11Z</time>
      </trkpt>
      <trkpt lat="44.28229" lon="6.09287">
        <ele>1660.4000244141</ele>
        <time>2020-08-04T11:26:27Z</time>
      </trkpt>
      <trkpt lat="44.28226" lon="6.09279">
        <ele>1658.8000488281</ele>
        <time>2020-08-04T11:26:44Z</time>
      </trkpt>
      <trkpt lat="44.28218" lon="6.09276">
        <ele>1656.1999511719</ele>
        <time>2020-08-04T11:27:01Z</time>
      </trkpt>
      <trkpt lat="44.28215" lon="6.09264">
        <ele>1653.1999511719</ele>
        <time>2020-08-04T11:27:17Z</time>
      </trkpt>
      <trkpt lat="44.28209" lon="6.09266">
        <ele>1650.8000488281</ele>
        <time>2020-08-04T11:27:31Z</time>
      </trkpt>
      <trkpt lat="44.28204" lon="6.09259">
        <ele>1649</ele>
        <time>2020-08-04T11:27:43Z</time>
      </trkpt>
      <trkpt lat="44.28197" lon="6.09253">
        <ele>1646.8000488281</ele>
        <time>2020-08-04T11:28:00Z</time>
      </trkpt>
      <trkpt lat="44.28192" lon="6.09246">
        <ele>1644.8000488281</ele>
        <time>2020-08-04T11:28:23Z</time>
      </trkpt>
      <trkpt lat="44.28185" lon="6.09248">
        <ele>1642.5999755859</ele>
        <time>2020-08-04T11:28:41Z</time>
      </trkpt>
      <trkpt lat="44.28177" lon="6.09246">
        <ele>1639.5999755859</ele>
        <time>2020-08-04T11:29:02Z</time>
      </trkpt>
      <trkpt lat="44.28173" lon="6.09241">
        <ele>1636.5999755859</ele>
        <time>2020-08-04T11:29:23Z</time>
      </trkpt>
      <trkpt lat="44.28174" lon="6.09233">
        <ele>1635.1999511719</ele>
        <time>2020-08-04T11:29:54Z</time>
      </trkpt>
      <trkpt lat="44.28172" lon="6.09226">
        <ele>1632.1999511719</ele>
        <time>2020-08-04T11:30:17Z</time>
      </trkpt>
      <trkpt lat="44.28167" lon="6.09229">
        <ele>1629.1999511719</ele>
        <time>2020-08-04T11:30:43Z</time>
      </trkpt>
      <trkpt lat="44.2816" lon="6.09227">
        <ele>1627.5999755859</ele>
        <time>2020-08-04T11:31:11Z</time>
      </trkpt>
      <trkpt lat="44.28153" lon="6.09227">
        <ele>1625.1999511719</ele>
        <time>2020-08-04T11:31:29Z</time>
      </trkpt>
      <trkpt lat="44.28148" lon="6.09223">
        <ele>1624</ele>
        <time>2020-08-04T11:31:51Z</time>
      </trkpt>
      <trkpt lat="44.28138" lon="6.09214">
        <ele>1621</ele>
        <time>2020-08-04T11:32:09Z</time>
      </trkpt>
      <trkpt lat="44.28129" lon="6.09202">
        <ele>1619.8000488281</ele>
        <time>2020-08-04T11:32:22Z</time>
      </trkpt>
      <trkpt lat="44.28122" lon="6.09194">
        <ele>1618</ele>
        <time>2020-08-04T11:32:40Z</time>
      </trkpt>
      <trkpt lat="44.28112" lon="6.09188">
        <ele>1614.8000488281</ele>
        <time>2020-08-04T11:32:57Z</time>
      </trkpt>
      <trkpt lat="44.28101" lon="6.09177">
        <ele>1611.8000488281</ele>
        <time>2020-08-04T11:33:17Z</time>
      </trkpt>
      <trkpt lat="44.2809" lon="6.09169">
        <ele>1608.5999755859</ele>
        <time>2020-08-04T11:33:38Z</time>
      </trkpt>
      <trkpt lat="44.28078" lon="6.09161">
        <ele>1607.1999511719</ele>
        <time>2020-08-04T11:33:56Z</time>
      </trkpt>
      <trkpt lat="44.28066" lon="6.09156">
        <ele>1607.8000488281</ele>
        <time>2020-08-04T11:34:13Z</time>
      </trkpt>
      <trkpt lat="44.28055" lon="6.09153">
        <ele>1607.8000488281</ele>
        <time>2020-08-04T11:34:33Z</time>
      </trkpt>
      <trkpt lat="44.28048" lon="6.09144">
        <ele>1606.4000244141</ele>
        <time>2020-08-04T11:34:53Z</time>
      </trkpt>
      <trkpt lat="44.28041" lon="6.09145">
        <ele>1605.5999755859</ele>
        <time>2020-08-04T11:35:17Z</time>
      </trkpt>
      <trkpt lat="44.28026" lon="6.09146">
        <ele>1603.4000244141</ele>
        <time>2020-08-04T11:35:38Z</time>
      </trkpt>
      <trkpt lat="44.28014" lon="6.09136">
        <ele>1600.1999511719</ele>
        <time>2020-08-04T11:35:54Z</time>
      </trkpt>
      <trkpt lat="44.28005" lon="6.09132">
        <ele>1598.4000244141</ele>
        <time>2020-08-04T11:36:05Z</time>
      </trkpt>
      <trkpt lat="44.27995" lon="6.09127">
        <ele>1596.8000488281</ele>
        <time>2020-08-04T11:36:21Z</time>
      </trkpt>
      <trkpt lat="44.27986" lon="6.09121">
        <ele>1594.5999755859</ele>
        <time>2020-08-04T11:36:41Z</time>
      </trkpt>
      <trkpt lat="44.27979" lon="6.0911">
        <ele>1591.4000244141</ele>
        <time>2020-08-04T11:36:54Z</time>
      </trkpt>
      <trkpt lat="44.27983" lon="6.091">
        <ele>1588.4000244141</ele>
        <time>2020-08-04T11:37:06Z</time>
      </trkpt>
      <trkpt lat="44.2799" lon="6.09084">
        <ele>1585.1999511719</ele>
        <time>2020-08-04T11:37:26Z</time>
      </trkpt>
      <trkpt lat="44.27992" lon="6.0907">
        <ele>1582.1999511719</ele>
        <time>2020-08-04T11:37:51Z</time>
      </trkpt>
      <trkpt lat="44.27993" lon="6.09063">
        <ele>1580.1999511719</ele>
        <time>2020-08-04T11:38:17Z</time>
      </trkpt>
      <trkpt lat="44.28" lon="6.09059">
        <ele>1577</ele>
        <time>2020-08-04T11:38:43Z</time>
      </trkpt>
      <trkpt lat="44.28009" lon="6.09051">
        <ele>1574</ele>
        <time>2020-08-04T11:39:02Z</time>
      </trkpt>
      <trkpt lat="44.2801" lon="6.09037">
        <ele>1571</ele>
        <time>2020-08-04T11:39:18Z</time>
      </trkpt>
      <trkpt lat="44.28006" lon="6.0902">
        <ele>1567.8000488281</ele>
        <time>2020-08-04T11:39:34Z</time>
      </trkpt>
      <trkpt lat="44.28005" lon="6.09009">
        <ele>1564.4000244141</ele>
        <time>2020-08-04T11:39:46Z</time>
      </trkpt>
      <trkpt lat="44.27998" lon="6.09005">
        <ele>1561.1999511719</ele>
        <time>2020-08-04T11:40:01Z</time>
      </trkpt>
      <trkpt lat="44.27989" lon="6.09001">
        <ele>1558</ele>
        <time>2020-08-04T11:40:21Z</time>
      </trkpt>
      <trkpt lat="44.27982" lon="6.08999">
        <ele>1554.8000488281</ele>
        <time>2020-08-04T11:40:41Z</time>
      </trkpt>
      <trkpt lat="44.2798" lon="6.08992">
        <ele>1551.8000488281</ele>
        <time>2020-08-04T11:40:52Z</time>
      </trkpt>
      <trkpt lat="44.27971" lon="6.08981">
        <ele>1548.8000488281</ele>
        <time>2020-08-04T11:41:11Z</time>
      </trkpt>
      <trkpt lat="44.27968" lon="6.08971">
        <ele>1545.8000488281</ele>
        <time>2020-08-04T11:41:24Z</time>
      </trkpt>
      <trkpt lat="44.27966" lon="6.0896">
        <ele>1542.8000488281</ele>
        <time>2020-08-04T11:41:38Z</time>
      </trkpt>
      <trkpt lat="44.27969" lon="6.08949">
        <ele>1540.4000244141</ele>
        <time>2020-08-04T11:41:57Z</time>
      </trkpt>
      <trkpt lat="44.27965" lon="6.08938">
        <ele>1537.1999511719</ele>
        <time>2020-08-04T11:42:12Z</time>
      </trkpt>
      <trkpt lat="44.27961" lon="6.08934">
        <ele>1535</ele>
        <time>2020-08-04T11:42:35Z</time>
      </trkpt>
      <trkpt lat="44.27959" lon="6.08923">
        <ele>1532.4000244141</ele>
        <time>2020-08-04T11:42:51Z</time>
      </trkpt>
      <trkpt lat="44.27957" lon="6.08915">
        <ele>1529.1999511719</ele>
        <time>2020-08-04T11:43:09Z</time>
      </trkpt>
      <trkpt lat="44.27958" lon="6.08904">
        <ele>1526.1999511719</ele>
        <time>2020-08-04T11:43:27Z</time>
      </trkpt>
      <trkpt lat="44.27956" lon="6.08897">
        <ele>1523.5999755859</ele>
        <time>2020-08-04T11:43:43Z</time>
      </trkpt>
      <trkpt lat="44.27956" lon="6.08888">
        <ele>1520.5999755859</ele>
        <time>2020-08-04T11:44:02Z</time>
      </trkpt>
      <trkpt lat="44.27952" lon="6.08872">
        <ele>1517.5999755859</ele>
        <time>2020-08-04T11:44:17Z</time>
      </trkpt>
      <trkpt lat="44.27951" lon="6.08871">
        <ele>1517.1999511719</ele>
        <time>2020-08-04T11:44:19Z</time>
      </trkpt>
      <trkpt lat="44.27942" lon="6.08865">
        <ele>1514.1999511719</ele>
        <time>2020-08-04T11:44:34Z</time>
      </trkpt>
      <trkpt lat="44.27932" lon="6.08856">
        <ele>1511</ele>
        <time>2020-08-04T11:44:52Z</time>
      </trkpt>
      <trkpt lat="44.27925" lon="6.08847">
        <ele>1508</ele>
        <time>2020-08-04T11:45:08Z</time>
      </trkpt>
      <trkpt lat="44.27921" lon="6.08835">
        <ele>1504.8000488281</ele>
        <time>2020-08-04T11:45:25Z</time>
      </trkpt>
      <trkpt lat="44.2792" lon="6.08821">
        <ele>1501.8000488281</ele>
        <time>2020-08-04T11:45:44Z</time>
      </trkpt>
      <trkpt lat="44.27921" lon="6.08811">
        <ele>1499.5999755859</ele>
        <time>2020-08-04T11:46:00Z</time>
      </trkpt>
      <trkpt lat="44.27918" lon="6.08803">
        <ele>1498</ele>
        <time>2020-08-04T11:46:17Z</time>
      </trkpt>
      <trkpt lat="44.27914" lon="6.08796">
        <ele>1495</ele>
        <time>2020-08-04T11:46:30Z</time>
      </trkpt>
      <trkpt lat="44.27912" lon="6.08789">
        <ele>1492</ele>
        <time>2020-08-04T11:46:45Z</time>
      </trkpt>
      <trkpt lat="44.2791" lon="6.08779">
        <ele>1489.5999755859</ele>
        <time>2020-08-04T11:47:01Z</time>
      </trkpt>
      <trkpt lat="44.2791" lon="6.08767">
        <ele>1486.4000244141</ele>
        <time>2020-08-04T11:47:14Z</time>
      </trkpt>
      <trkpt lat="44.27912" lon="6.08754">
        <ele>1484</ele>
        <time>2020-08-04T11:47:28Z</time>
      </trkpt>
      <trkpt lat="44.27915" lon="6.08738">
        <ele>1481</ele>
        <time>2020-08-04T11:47:46Z</time>
      </trkpt>
      <trkpt lat="44.27915" lon="6.08729">
        <ele>1477.8000488281</ele>
        <time>2020-08-04T11:47:56Z</time>
      </trkpt>
      <trkpt lat="44.27915" lon="6.08729">
        <ele>1477.5999755859</ele>
        <time>2020-08-04T11:47:57Z</time>
      </trkpt>
      <trkpt lat="44.27913" lon="6.08718">
        <ele>1474.4000244141</ele>
        <time>2020-08-04T11:48:08Z</time>
      </trkpt>
      <trkpt lat="44.27908" lon="6.08702">
        <ele>1471.1999511719</ele>
        <time>2020-08-04T11:48:27Z</time>
      </trkpt>
      <trkpt lat="44.27909" lon="6.08686">
        <ele>1468</ele>
        <time>2020-08-04T11:48:42Z</time>
      </trkpt>
      <trkpt lat="44.27909" lon="6.08668">
        <ele>1464.8000488281</ele>
        <time>2020-08-04T11:48:58Z</time>
      </trkpt>
      <trkpt lat="44.27903" lon="6.08655">
        <ele>1461.5999755859</ele>
        <time>2020-08-04T11:49:12Z</time>
      </trkpt>
      <trkpt lat="44.27896" lon="6.08641">
        <ele>1460</ele>
        <time>2020-08-04T11:49:28Z</time>
      </trkpt>
      <trkpt lat="44.27894" lon="6.08634">
        <ele>1458.5999755859</ele>
        <time>2020-08-04T11:49:34Z</time>
      </trkpt>
      <trkpt lat="44.27891" lon="6.08631">
        <ele>1457.1999511719</ele>
        <time>2020-08-04T11:49:38Z</time>
      </trkpt>
      <trkpt lat="44.27885" lon="6.08619">
        <ele>1454.5999755859</ele>
        <time>2020-08-04T11:49:55Z</time>
      </trkpt>
      <trkpt lat="44.27892" lon="6.08605">
        <ele>1451.5999755859</ele>
        <time>2020-08-04T11:50:21Z</time>
      </trkpt>
      <trkpt lat="44.2789" lon="6.0858">
        <ele>1449.8000488281</ele>
        <time>2020-08-04T11:50:43Z</time>
      </trkpt>
      <trkpt lat="44.27889" lon="6.08578">
        <ele>1449.5999755859</ele>
        <time>2020-08-04T11:50:44Z</time>
      </trkpt>
      <trkpt lat="44.27887" lon="6.08561">
        <ele>1446.4000244141</ele>
        <time>2020-08-04T11:50:59Z</time>
      </trkpt>
      <trkpt lat="44.2789" lon="6.0855">
        <ele>1443.5999755859</ele>
        <time>2020-08-04T11:51:09Z</time>
      </trkpt>
      <trkpt lat="44.27892" lon="6.08534">
        <ele>1440.5999755859</ele>
        <time>2020-08-04T11:51:22Z</time>
      </trkpt>
      <trkpt lat="44.27892" lon="6.08515">
        <ele>1437.5999755859</ele>
        <time>2020-08-04T11:51:39Z</time>
      </trkpt>
      <trkpt lat="44.2789" lon="6.08504">
        <ele>1436.1999511719</ele>
        <time>2020-08-04T11:51:48Z</time>
      </trkpt>
      <trkpt lat="44.27887" lon="6.08485">
        <ele>1432.4000244141</ele>
        <time>2020-08-04T11:52:00Z</time>
      </trkpt>
      <trkpt lat="44.27883" lon="6.08465">
        <ele>1429.4000244141</ele>
        <time>2020-08-04T11:52:14Z</time>
      </trkpt>
      <trkpt lat="44.27883" lon="6.08451">
        <ele>1427.1999511719</ele>
        <time>2020-08-04T11:52:29Z</time>
      </trkpt>
      <trkpt lat="44.27884" lon="6.08428">
        <ele>1424.8000488281</ele>
        <time>2020-08-04T11:52:49Z</time>
      </trkpt>
      <trkpt lat="44.27882" lon="6.08406">
        <ele>1421.8000488281</ele>
        <time>2020-08-04T11:53:08Z</time>
      </trkpt>
      <trkpt lat="44.27873" lon="6.08394">
        <ele>1419.1999511719</ele>
        <time>2020-08-04T11:53:25Z</time>
      </trkpt>
      <trkpt lat="44.27871" lon="6.08389">
        <ele>1419</ele>
        <time>2020-08-04T11:53:31Z</time>
      </trkpt>
      <trkpt lat="44.27865" lon="6.0839">
        <ele>1419</ele>
        <time>2020-08-04T11:53:36Z</time>
      </trkpt>
      <trkpt lat="44.27863" lon="6.08389">
        <ele>1419</ele>
        <time>2020-08-04T11:53:38Z</time>
      </trkpt>
      <trkpt lat="44.27843" lon="6.08376">
        <ele>1418.1999511719</ele>
        <time>2020-08-04T11:53:57Z</time>
      </trkpt>
      <trkpt lat="44.27838" lon="6.08373">
        <ele>1418</ele>
        <time>2020-08-04T11:54:02Z</time>
      </trkpt>
      <trkpt lat="44.2783" lon="6.08364">
        <ele>1417</ele>
        <time>2020-08-04T11:54:23Z</time>
      </trkpt>
      <trkpt lat="44.27806" lon="6.08342">
        <ele>1414.5999755859</ele>
        <time>2020-08-04T11:54:50Z</time>
      </trkpt>
      <trkpt lat="44.27785" lon="6.08317">
        <ele>1411.5999755859</ele>
        <time>2020-08-04T11:55:18Z</time>
      </trkpt>
      <trkpt lat="44.27763" lon="6.083">
        <ele>1408.4000244141</ele>
        <time>2020-08-04T11:55:40Z</time>
      </trkpt>
      <trkpt lat="44.27759" lon="6.08294">
        <ele>1407.4000244141</ele>
        <time>2020-08-04T11:55:52Z</time>
      </trkpt>
      <trkpt lat="44.27744" lon="6.08281">
        <ele>1405.8000488281</ele>
        <time>2020-08-04T11:56:14Z</time>
      </trkpt>
      <trkpt lat="44.27743" lon="6.0828">
        <ele>1405.5999755859</ele>
        <time>2020-08-04T11:56:15Z</time>
      </trkpt>
      <trkpt lat="44.2772" lon="6.08279">
        <ele>1403.8000488281</ele>
        <time>2020-08-04T11:56:39Z</time>
      </trkpt>
      <trkpt lat="44.27716" lon="6.08308">
        <ele>1402.8000488281</ele>
        <time>2020-08-04T11:56:58Z</time>
      </trkpt>
      <trkpt lat="44.27714" lon="6.08331">
        <ele>1401.5999755859</ele>
        <time>2020-08-04T11:57:15Z</time>
      </trkpt>
      <trkpt lat="44.2771" lon="6.0837">
        <ele>1399</ele>
        <time>2020-08-04T11:57:40Z</time>
      </trkpt>
      <trkpt lat="44.27708" lon="6.08397">
        <ele>1397.4000244141</ele>
        <time>2020-08-04T11:57:57Z</time>
      </trkpt>
      <trkpt lat="44.27712" lon="6.08422">
        <ele>1396.1999511719</ele>
        <time>2020-08-04T11:58:13Z</time>
      </trkpt>
      <trkpt lat="44.27704" lon="6.08429">
        <ele>1394.5999755859</ele>
        <time>2020-08-04T11:58:31Z</time>
      </trkpt>
      <trkpt lat="44.277" lon="6.08391">
        <ele>1391.5999755859</ele>
        <time>2020-08-04T11:58:56Z</time>
      </trkpt>
      <trkpt lat="44.27691" lon="6.08358">
        <ele>1388.4000244141</ele>
        <time>2020-08-04T11:59:22Z</time>
      </trkpt>
      <trkpt lat="44.27687" lon="6.08331">
        <ele>1385</ele>
        <time>2020-08-04T11:59:43Z</time>
      </trkpt>
      <trkpt lat="44.27691" lon="6.08303">
        <ele>1382.5999755859</ele>
        <time>2020-08-04T12:00:00Z</time>
      </trkpt>
      <trkpt lat="44.27695" lon="6.08276">
        <ele>1380.1999511719</ele>
        <time>2020-08-04T12:00:18Z</time>
      </trkpt>
      <trkpt lat="44.27691" lon="6.08271">
        <ele>1379.8000488281</ele>
        <time>2020-08-04T12:00:23Z</time>
      </trkpt>
      <trkpt lat="44.27687" lon="6.08277">
        <ele>1379.5999755859</ele>
        <time>2020-08-04T12:00:28Z</time>
      </trkpt>
      <trkpt lat="44.27679" lon="6.08295">
        <ele>1377</ele>
        <time>2020-08-04T12:00:43Z</time>
      </trkpt>
      <trkpt lat="44.2766" lon="6.08315">
        <ele>1374.8000488281</ele>
        <time>2020-08-04T12:01:04Z</time>
      </trkpt>
      <trkpt lat="44.27642" lon="6.08321">
        <ele>1371.5999755859</ele>
        <time>2020-08-04T12:01:27Z</time>
      </trkpt>
      <trkpt lat="44.27647" lon="6.08306">
        <ele>1368.4000244141</ele>
        <time>2020-08-04T12:01:37Z</time>
      </trkpt>
      <trkpt lat="44.27647" lon="6.08303">
        <ele>1367.5999755859</ele>
        <time>2020-08-04T12:01:39Z</time>
      </trkpt>
      <trkpt lat="44.27656" lon="6.0827">
        <ele>1365.8000488281</ele>
        <time>2020-08-04T12:02:01Z</time>
      </trkpt>
      <trkpt lat="44.27662" lon="6.08246">
        <ele>1363.8000488281</ele>
        <time>2020-08-04T12:02:18Z</time>
      </trkpt>
      <trkpt lat="44.27669" lon="6.08221">
        <ele>1361.1999511719</ele>
        <time>2020-08-04T12:02:37Z</time>
      </trkpt>
      <trkpt lat="44.27672" lon="6.08202">
        <ele>1359.4000244141</ele>
        <time>2020-08-04T12:02:51Z</time>
      </trkpt>
      <trkpt lat="44.27671" lon="6.08193">
        <ele>1358.1999511719</ele>
        <time>2020-08-04T12:03:16Z</time>
      </trkpt>
      <trkpt lat="44.27676" lon="6.08167">
        <ele>1356.5999755859</ele>
        <time>2020-08-04T12:03:34Z</time>
      </trkpt>
      <trkpt lat="44.27676" lon="6.08166">
        <ele>1356.4000244141</ele>
        <time>2020-08-04T12:03:35Z</time>
      </trkpt>
      <trkpt lat="44.2767" lon="6.08169">
        <ele>1355.5999755859</ele>
        <time>2020-08-04T12:03:44Z</time>
      </trkpt>
      <trkpt lat="44.27666" lon="6.08182">
        <ele>1354.1999511719</ele>
        <time>2020-08-04T12:03:54Z</time>
      </trkpt>
      <trkpt lat="44.27651" lon="6.082">
        <ele>1351.8000488281</ele>
        <time>2020-08-04T12:04:13Z</time>
      </trkpt>
      <trkpt lat="44.27649" lon="6.08203">
        <ele>1351.4000244141</ele>
        <time>2020-08-04T12:04:16Z</time>
      </trkpt>
      <trkpt lat="44.27648" lon="6.08206">
        <ele>1351.4000244141</ele>
        <time>2020-08-04T12:04:18Z</time>
      </trkpt>
      <trkpt lat="44.27635" lon="6.08215">
        <ele>1349.5999755859</ele>
        <time>2020-08-04T12:04:31Z</time>
      </trkpt>
      <trkpt lat="44.27631" lon="6.08215">
        <ele>1348.8000488281</ele>
        <time>2020-08-04T12:04:35Z</time>
      </trkpt>
      <trkpt lat="44.27611" lon="6.08198">
        <ele>1346.8000488281</ele>
        <time>2020-08-04T12:04:58Z</time>
      </trkpt>
      <trkpt lat="44.27613" lon="6.08187">
        <ele>1346.1999511719</ele>
        <time>2020-08-04T12:05:04Z</time>
      </trkpt>
      <trkpt lat="44.27625" lon="6.08161">
        <ele>1345.5999755859</ele>
        <time>2020-08-04T12:05:23Z</time>
      </trkpt>
      <trkpt lat="44.27636" lon="6.0815">
        <ele>1344.4000244141</ele>
        <time>2020-08-04T12:05:35Z</time>
      </trkpt>
      <trkpt lat="44.27658" lon="6.08125">
        <ele>1341.4000244141</ele>
        <time>2020-08-04T12:05:58Z</time>
      </trkpt>
      <trkpt lat="44.2767" lon="6.08105">
        <ele>1339.5999755859</ele>
        <time>2020-08-04T12:06:16Z</time>
      </trkpt>
      <trkpt lat="44.27678" lon="6.08085">
        <ele>1337.4000244141</ele>
        <time>2020-08-04T12:06:33Z</time>
      </trkpt>
      <trkpt lat="44.2769" lon="6.08066">
        <ele>1335.4000244141</ele>
        <time>2020-08-04T12:06:50Z</time>
      </trkpt>
      <trkpt lat="44.27698" lon="6.08056">
        <ele>1334.4000244141</ele>
        <time>2020-08-04T12:07:01Z</time>
      </trkpt>
      <trkpt lat="44.27709" lon="6.08041">
        <ele>1332.5999755859</ele>
        <time>2020-08-04T12:07:16Z</time>
      </trkpt>
      <trkpt lat="44.27719" lon="6.08025">
        <ele>1331.4000244141</ele>
        <time>2020-08-04T12:07:29Z</time>
      </trkpt>
      <trkpt lat="44.27723" lon="6.08018">
        <ele>1329.8000488281</ele>
        <time>2020-08-04T12:07:36Z</time>
      </trkpt>
      <trkpt lat="44.27732" lon="6.08004">
        <ele>1328</ele>
        <time>2020-08-04T12:07:50Z</time>
      </trkpt>
      <trkpt lat="44.27734" lon="6.08">
        <ele>1327.8000488281</ele>
        <time>2020-08-04T12:07:53Z</time>
      </trkpt>
      <trkpt lat="44.2774" lon="6.07986">
        <ele>1326.5999755859</ele>
        <time>2020-08-04T12:08:04Z</time>
      </trkpt>
      <trkpt lat="44.27747" lon="6.0797">
        <ele>1325</ele>
        <time>2020-08-04T12:08:16Z</time>
      </trkpt>
      <trkpt lat="44.27755" lon="6.07962">
        <ele>1324</ele>
        <time>2020-08-04T12:08:25Z</time>
      </trkpt>
      <trkpt lat="44.27758" lon="6.07961">
        <ele>1323.8000488281</ele>
        <time>2020-08-04T12:08:28Z</time>
      </trkpt>
      <trkpt lat="44.27774" lon="6.07945">
        <ele>1321.8000488281</ele>
        <time>2020-08-04T12:08:45Z</time>
      </trkpt>
      <trkpt lat="44.27795" lon="6.07927">
        <ele>1318.8000488281</ele>
        <time>2020-08-04T12:09:08Z</time>
      </trkpt>
      <trkpt lat="44.27817" lon="6.07918">
        <ele>1315.8000488281</ele>
        <time>2020-08-04T12:09:33Z</time>
      </trkpt>
      <trkpt lat="44.27843" lon="6.07924">
        <ele>1313.4000244141</ele>
        <time>2020-08-04T12:09:53Z</time>
      </trkpt>
      <trkpt lat="44.27845" lon="6.07925">
        <ele>1313.4000244141</ele>
        <time>2020-08-04T12:09:55Z</time>
      </trkpt>
      <trkpt lat="44.27861" lon="6.0792">
        <ele>1312</ele>
        <time>2020-08-04T12:10:11Z</time>
      </trkpt>
      <trkpt lat="44.27876" lon="6.07905">
        <ele>1311.1999511719</ele>
        <time>2020-08-04T12:10:29Z</time>
      </trkpt>
      <trkpt lat="44.27887" lon="6.07901">
        <ele>1310.1999511719</ele>
        <time>2020-08-04T12:10:40Z</time>
      </trkpt>
      <trkpt lat="44.27895" lon="6.07902">
        <ele>1308.4000244141</ele>
        <time>2020-08-04T12:10:53Z</time>
      </trkpt>
      <trkpt lat="44.27897" lon="6.07883">
        <ele>1305.4000244141</ele>
        <time>2020-08-04T12:11:14Z</time>
      </trkpt>
      <trkpt lat="44.2789" lon="6.0787">
        <ele>1302.1999511719</ele>
        <time>2020-08-04T12:11:31Z</time>
      </trkpt>
      <trkpt lat="44.27887" lon="6.07868">
        <ele>1302</ele>
        <time>2020-08-04T12:11:33Z</time>
      </trkpt>
      <trkpt lat="44.27882" lon="6.07866">
        <ele>1301.8000488281</ele>
        <time>2020-08-04T12:11:35Z</time>
      </trkpt>
      <trkpt lat="44.2786" lon="6.07872">
        <ele>1300.4000244141</ele>
        <time>2020-08-04T12:11:57Z</time>
      </trkpt>
      <trkpt lat="44.27855" lon="6.07882">
        <ele>1300</ele>
        <time>2020-08-04T12:12:06Z</time>
      </trkpt>
      <trkpt lat="44.27842" lon="6.07885">
        <ele>1299</ele>
        <time>2020-08-04T12:12:16Z</time>
      </trkpt>
      <trkpt lat="44.27829" lon="6.07864">
        <ele>1296.4000244141</ele>
        <time>2020-08-04T12:12:36Z</time>
      </trkpt>
      <trkpt lat="44.27824" lon="6.07849">
        <ele>1294.8000488281</ele>
        <time>2020-08-04T12:12:57Z</time>
      </trkpt>
      <trkpt lat="44.27812" lon="6.07825">
        <ele>1292.4000244141</ele>
        <time>2020-08-04T12:13:18Z</time>
      </trkpt>
      <trkpt lat="44.27798" lon="6.07812">
        <ele>1290.1999511719</ele>
        <time>2020-08-04T12:13:36Z</time>
      </trkpt>
      <trkpt lat="44.27789" lon="6.07802">
        <ele>1288.1999511719</ele>
        <time>2020-08-04T12:13:47Z</time>
      </trkpt>
      <trkpt lat="44.27775" lon="6.07792">
        <ele>1285.5999755859</ele>
        <time>2020-08-04T12:14:07Z</time>
      </trkpt>
      <trkpt lat="44.27767" lon="6.07778">
        <ele>1284</ele>
        <time>2020-08-04T12:14:19Z</time>
      </trkpt>
      <trkpt lat="44.27765" lon="6.07763">
        <ele>1283</ele>
        <time>2020-08-04T12:14:29Z</time>
      </trkpt>
      <trkpt lat="44.27766" lon="6.07736">
        <ele>1280.8000488281</ele>
        <time>2020-08-04T12:14:48Z</time>
      </trkpt>
      <trkpt lat="44.27769" lon="6.07705">
        <ele>1278</ele>
        <time>2020-08-04T12:15:11Z</time>
      </trkpt>
      <trkpt lat="44.27774" lon="6.07671">
        <ele>1275</ele>
        <time>2020-08-04T12:15:33Z</time>
      </trkpt>
      <trkpt lat="44.27779" lon="6.07643">
        <ele>1272</ele>
        <time>2020-08-04T12:15:53Z</time>
      </trkpt>
      <trkpt lat="44.27785" lon="6.07601">
        <ele>1268.8000488281</ele>
        <time>2020-08-04T12:16:17Z</time>
      </trkpt>
      <trkpt lat="44.2779" lon="6.07575">
        <ele>1266.8000488281</ele>
        <time>2020-08-04T12:16:35Z</time>
      </trkpt>
      <trkpt lat="44.27785" lon="6.07545">
        <ele>1264.4000244141</ele>
        <time>2020-08-04T12:16:54Z</time>
      </trkpt>
      <trkpt lat="44.27773" lon="6.07515">
        <ele>1262.1999511719</ele>
        <time>2020-08-04T12:17:14Z</time>
      </trkpt>
      <trkpt lat="44.27757" lon="6.0751">
        <ele>1259.8000488281</ele>
        <time>2020-08-04T12:17:30Z</time>
      </trkpt>
      <trkpt lat="44.27742" lon="6.07518">
        <ele>1258.5999755859</ele>
        <time>2020-08-04T12:17:44Z</time>
      </trkpt>
      <trkpt lat="44.27736" lon="6.07524">
        <ele>1257.5999755859</ele>
        <time>2020-08-04T12:17:51Z</time>
      </trkpt>
      <trkpt lat="44.27719" lon="6.07531">
        <ele>1256.1999511719</ele>
        <time>2020-08-04T12:18:06Z</time>
      </trkpt>
      <trkpt lat="44.27717" lon="6.07533">
        <ele>1255.8000488281</ele>
        <time>2020-08-04T12:18:09Z</time>
      </trkpt>
      <trkpt lat="44.27711" lon="6.07536">
        <ele>1255.1999511719</ele>
        <time>2020-08-04T12:18:16Z</time>
      </trkpt>
      <trkpt lat="44.27698" lon="6.0755">
        <ele>1254.4000244141</ele>
        <time>2020-08-04T12:18:30Z</time>
      </trkpt>
      <trkpt lat="44.27691" lon="6.07556">
        <ele>1253.4000244141</ele>
        <time>2020-08-04T12:18:39Z</time>
      </trkpt>
    </trkseg>
  </trk>
</gpx>